Wetterdaten: Montag, 01.07.2013
Datum Zeit Temp. Aussen +5cm Feuchte Auss Luftdruck Regen Sonnenschein Regendauer UV Solar Windben
01.07.2013 00:00 17,3 C 15,1 C 86 % 1018,9 hPa 0,0 l/m 0 min 0 min 0,0 UV-I 0 W/m 7,7 km/h (2 Bft)
01.07.2013 00:02 17,3 C 15,1 C 86 % 1018,8 hPa 0,0 l/m 0 min 0 min 0,0 UV-I 0 W/m 0,0 km/h (0 Bft)
01.07.2013 00:06 17,2 C 15,1 C 86 % 1018,8 hPa 0,0 l/m 0 min 0 min 0,0 UV-I 0 W/m 10,3 km/h (2 Bft)
01.07.2013 00:08 17,2 C 15,1 C 86 % 1018,8 hPa 0,0 l/m 0 min 0 min 0,0 UV-I 0 W/m 0,0 km/h (0 Bft)
01.07.2013 00:10 17,2 C 15,1 C 86 % 1018,8 hPa 0,0 l/m 0 min 0 min 0,0 UV-I 0 W/m 0,0 km/h (0 Bft)
01.07.2013 00:12 17,2 C 15,1 C 86 % 1018,8 hPa 0,0 l/m 0 min 0 min 0,0 UV-I 0 W/m 0,0 km/h (0 Bft)
01.07.2013 00:14 17,1 C 15,1 C 87 % 1018,7 hPa 0,0 l/m 0 min 0 min 0,0 UV-I 0 W/m 0,0 km/h (0 Bft)
01.07.2013 00:16 17,1 C 15,1 C 87 % 1018,8 hPa 0,0 l/m 0 min 0 min 0,0 UV-I 0 W/m 0,0 km/h (0 Bft)
01.07.2013 00:18 17,1 C 15,1 C 87 % 1018,7 hPa 0,0 l/m 0 min 0 min 0,0 UV-I 0 W/m 7,7 km/h (2 Bft)
01.07.2013 00:20 17,1 C 15,1 C 87 % 1018,7 hPa 0,0 l/m 0 min 0 min 0,0 UV-I 0 W/m 0,0 km/h (0 Bft)
01.07.2013 00:22 17,0 C 14,6 C 87 % 1018,7 hPa 0,0 l/m 0 min 0 min 0,0 UV-I 0 W/m 2,6 km/h (1 Bft)
01.07.2013 00:24 17,0 C 15,1 C 87 % 1018,7 hPa 0,0 l/m 0 min 0 min 0,0 UV-I 0 W/m 0,0 km/h (0 Bft)
01.07.2013 00:26 16,9 C 15,1 C 87 % 1018,6 hPa 0,0 l/m 0 min 0 min 0,0 UV-I 0 W/m 5,1 km/h (1 Bft)
01.07.2013 00:28 16,9 C 15,1 C 87 % 1018,6 hPa 0,0 l/m 0 min 0 min 0,0 UV-I 0 W/m 0,0 km/h (0 Bft)
01.07.2013 00:30 16,9 C 15,1 C 87 % 1018,6 hPa 0,0 l/m 0 min 0 min 0,0 UV-I 0 W/m 5,1 km/h (1 Bft)
01.07.2013 00:32 16,9 C 15,1 C 87 % 1018,6 hPa 0,0 l/m 0 min 0 min 0,0 UV-I 0 W/m 0,0 km/h (0 Bft)
01.07.2013 00:34 16,9 C 14,6 C 87 % 1018,6 hPa 0,0 l/m 0 min 0 min 0,0 UV-I 0 W/m 0,0 km/h (0 Bft)
01.07.2013 00:36 16,8 C 14,6 C 87 % 1018,6 hPa 0,0 l/m 0 min 0 min 0,0 UV-I 0 W/m 0,0 km/h (0 Bft)
01.07.2013 00:38 16,8 C 14,6 C 87 % 1018,6 hPa 0,0 l/m 0 min 0 min 0,0 UV-I 0 W/m 0,0 km/h (0 Bft)
01.07.2013 00:40 16,8 C 14,6 C 88 % 1018,6 hPa 0,0 l/m 0 min 0 min 0,0 UV-I 0 W/m 0,0 km/h (0 Bft)
01.07.2013 00:42 16,8 C 14,6 C 88 % 1018,5 hPa 0,0 l/m 0 min 0 min 0,0 UV-I 0 W/m 0,0 km/h (0 Bft)
01.07.2013 00:44 16,8 C 14,6 C 88 % 1018,6 hPa 0,0 l/m 0 min 0 min 0,0 UV-I 0 W/m 0,0 km/h (0 Bft)
01.07.2013 00:46 16,7 C 14,6 C 88 % 1018,5 hPa 0,0 l/m 0 min 0 min 0,0 UV-I 0 W/m 7,7 km/h (2 Bft)
01.07.2013 00:48 16,7 C 14,6 C 88 % 1018,5 hPa 0,0 l/m 0 min 0 min 0,0 UV-I 0 W/m 7,7 km/h (2 Bft)
01.07.2013 00:50 16,7 C 14,6 C 88 % 1018,5 hPa 0,0 l/m 0 min 0 min 0,0 UV-I 0 W/m 5,1 km/h (1 Bft)
01.07.2013 00:52 16,7 C 14,6 C 88 % 1018,5 hPa 0,0 l/m 0 min 0 min 0,0 UV-I 0 W/m 0,0 km/h (0 Bft)
01.07.2013 00:54 16,6 C 14,6 C 88 % 1018,5 hPa 0,0 l/m 0 min 0 min 0,0 UV-I 0 W/m 0,0 km/h (0 Bft)
01.07.2013 00:56 16,6 C 14,6 C 88 % 1018,4 hPa 0,0 l/m 0 min 0 min 0,0 UV-I 0 W/m 0,0 km/h (0 Bft)
01.07.2013 00:58 16,6 C 14,6 C 88 % 1018,4 hPa 0,0 l/m 0 min 0 min 0,0 UV-I 0 W/m 2,6 km/h (1 Bft)
01.07.2013 01:00 16,5 C 14,6 C 89 % 1018,4 hPa 0,0 l/m 0 min 0 min 0,0 UV-I 0 W/m 5,1 km/h (1 Bft)
01.07.2013 01:02 16,5 C 14,6 C 89 % 1018,4 hPa 0,0 l/m 0 min 0 min 0,0 UV-I 0 W/m 0,0 km/h (0 Bft)
01.07.2013 01:06 16,4 C 14,6 C 89 % 1018,4 hPa 0,0 l/m 0 min 0 min 0,0 UV-I 0 W/m 0,0 km/h (0 Bft)
01.07.2013 01:08 16,4 C 14,6 C 89 % 1018,4 hPa 0,0 l/m 0 min 0 min 0,0 UV-I 0 W/m 0,0 km/h (0 Bft)
01.07.2013 01:10 16,4 C 14,6 C 89 % 1018,4 hPa 0,0 l/m 0 min 0 min 0,0 UV-I 0 W/m 2,6 km/h (1 Bft)
01.07.2013 01:12 16,4 C 14,6 C 89 % 1018,4 hPa 0,0 l/m 0 min 0 min 0,0 UV-I 0 W/m 0,0 km/h (0 Bft)
01.07.2013 01:14 16,4 C 14,6 C 89 % 1018,4 hPa 0,0 l/m 0 min 0 min 0,0 UV-I 0 W/m 0,0 km/h (0 Bft)
01.07.2013 01:16 16,3 C 14,6 C 89 % 1018,4 hPa 0,0 l/m 0 min 0 min 0,0 UV-I 0 W/m 0,0 km/h (0 Bft)
01.07.2013 01:18 16,3 C 14,6 C 89 % 1018,4 hPa 0,0 l/m 0 min 0 min 0,0 UV-I 0 W/m 0,0 km/h (0 Bft)
01.07.2013 01:20 16,3 C 14,6 C 89 % 1018,3 hPa 0,0 l/m 0 min 0 min 0,0 UV-I 0 W/m 5,1 km/h (1 Bft)
01.07.2013 01:22 16,3 C 14,6 C 89 % 1018,3 hPa 0,0 l/m 0 min 0 min 0,0 UV-I 0 W/m 5,1 km/h (1 Bft)
01.07.2013 01:24 16,3 C 14,6 C 89 % 1018,3 hPa 0,0 l/m 0 min 0 min 0,0 UV-I 0 W/m 0,0 km/h (0 Bft)
01.07.2013 01:26 16,2 C 14,6 C 89 % 1018,3 hPa 0,0 l/m 0 min 0 min 0,0 UV-I 0 W/m 7,7 km/h (2 Bft)
01.07.2013 01:28 16,2 C 14,6 C 89 % 1018,4 hPa 0,0 l/m 0 min 0 min 0,0 UV-I 0 W/m 5,1 km/h (1 Bft)
01.07.2013 01:30 16,2 C 14,6 C 90 % 1018,4 hPa 0,0 l/m 0 min 0 min 0,0 UV-I 0 W/m 0,0 km/h (0 Bft)
01.07.2013 01:32 16,2 C 14,6 C 90 % 1018,3 hPa 0,0 l/m 0 min 0 min 0,0 UV-I 0 W/m 5,1 km/h (1 Bft)
01.07.2013 01:34 16,2 C 14,6 C 90 % 1018,3 hPa 0,0 l/m 0 min 0 min 0,0 UV-I 0 W/m 5,1 km/h (1 Bft)
01.07.2013 01:36 16,1 C 14,6 C 90 % 1018,3 hPa 0,0 l/m 0 min 0 min 0,0 UV-I 0 W/m 2,6 km/h (1 Bft)
01.07.2013 01:38 16,1 C 14,0 C 90 % 1018,2 hPa 0,0 l/m 0 min 0 min 0,0 UV-I 0 W/m 7,7 km/h (2 Bft)
01.07.2013 01:40 16,1 C 14,0 C 90 % 1018,3 hPa 0,0 l/m 0 min 0 min 0,0 UV-I 0 W/m 2,6 km/h (1 Bft)
01.07.2013 01:42 16,1 C 14,0 C 90 % 1018,3 hPa 0,0 l/m 0 min 0 min 0,0 UV-I 0 W/m 0,0 km/h (0 Bft)
01.07.2013 01:44 16,0 C 14,0 C 90 % 1018,3 hPa 0,0 l/m 0 min 0 min 0,0 UV-I 0 W/m 0,0 km/h (0 Bft)
01.07.2013 01:46 16,0 C 14,0 C 90 % 1018,3 hPa 0,0 l/m 0 min 0 min 0,0 UV-I 0 W/m 2,6 km/h (1 Bft)
01.07.2013 01:48 16,0 C 14,0 C 90 % 1018,4 hPa 0,0 l/m 0 min 0 min 0,0 UV-I 0 W/m 0,0 km/h (0 Bft)
01.07.2013 01:50 15,9 C 14,0 C 90 % 1018,3 hPa 0,0 l/m 0 min 0 min 0,0 UV-I 0 W/m 0,0 km/h (0 Bft)
01.07.2013 01:52 15,9 C 14,0 C 90 % 1018,3 hPa 0,0 l/m 0 min 0 min 0,0 UV-I 0 W/m 0,0 km/h (0 Bft)
01.07.2013 01:54 15,9 C 14,0 C 90 % 1018,2 hPa 0,0 l/m 0 min 0 min 0,0 UV-I 0 W/m 0,0 km/h (0 Bft)
01.07.2013 01:56 15,9 C 14,0 C 90 % 1018,3 hPa 0,0 l/m 0 min 0 min 0,0 UV-I 0 W/m 0,0 km/h (0 Bft)
01.07.2013 01:58 15,9 C 14,0 C 90 % 1018,2 hPa 0,0 l/m 0 min 0 min 0,0 UV-I 0 W/m 5,1 km/h (1 Bft)
01.07.2013 02:00 15,8 C 14,0 C 90 % 1018,2 hPa 0,0 l/m 0 min 0 min 0,0 UV-I 0 W/m 0,0 km/h (0 Bft)
01.07.2013 02:02 15,8 C 14,0 C 91 % 1018,2 hPa 0,0 l/m 0 min 0 min 0,0 UV-I 0 W/m 0,0 km/h (0 Bft)
01.07.2013 02:06 15,8 C 14,0 C 91 % 1018,2 hPa 0,0 l/m 0 min 0 min 0,0 UV-I 0 W/m 7,7 km/h (2 Bft)
01.07.2013 02:08 15,8 C 14,0 C 91 % 1018,2 hPa 0,0 l/m 0 min 0 min 0,0 UV-I 0 W/m 10,3 km/h (2 Bft)
01.07.2013 02:10 15,8 C 14,0 C 91 % 1018,1 hPa 0,0 l/m 0 min 0 min 0,0 UV-I 0 W/m 7,7 km/h (2 Bft)
01.07.2013 02:12 15,8 C 14,0 C 91 % 1018,0 hPa 0,0 l/m 0 min 0 min 0,0 UV-I 0 W/m 0,0 km/h (0 Bft)
01.07.2013 02:14 15,7 C 14,0 C 91 % 1018,0 hPa 0,0 l/m 0 min 0 min 0,0 UV-I 0 W/m 0,0 km/h (0 Bft)
01.07.2013 02:16 15,7 C 14,0 C 91 % 1018,0 hPa 0,0 l/m 0 min 0 min 0,0 UV-I 0 W/m 5,1 km/h (1 Bft)
01.07.2013 02:18 15,7 C 14,0 C 92 % 1018,0 hPa 0,0 l/m 0 min 0 min 0,0 UV-I 0 W/m 0,0 km/h (0 Bft)
01.07.2013 02:20 15,7 C 14,0 C 92 % 1017,9 hPa 0,0 l/m 0 min 0 min 0,0 UV-I 0 W/m 2,6 km/h (1 Bft)
01.07.2013 02:22 15,7 C 14,0 C 91 % 1018,0 hPa 0,0 l/m 0 min 0 min 0,0 UV-I 0 W/m 0,0 km/h (0 Bft)
01.07.2013 02:24 15,7 C 14,0 C 91 % 1018,0 hPa 0,0 l/m 0 min 0 min 0,0 UV-I 0 W/m 5,1 km/h (1 Bft)
01.07.2013 02:26 15,7 C 14,0 C 91 % 1018,0 hPa 0,0 l/m 0 min 0 min 0,0 UV-I 0 W/m 5,1 km/h (1 Bft)
01.07.2013 02:28 15,6 C 14,0 C 92 % 1018,0 hPa 0,0 l/m 0 min 0 min 0,0 UV-I 0 W/m 0,0 km/h (0 Bft)
01.07.2013 02:30 15,6 C 14,0 C 92 % 1018,0 hPa 0,0 l/m 0 min 0 min 0,0 UV-I 0 W/m 0,0 km/h (0 Bft)
01.07.2013 02:32 15,6 C 14,0 C 92 % 1017,9 hPa 0,0 l/m 0 min 0 min 0,0 UV-I 0 W/m 5,1 km/h (1 Bft)
01.07.2013 02:34 15,6 C 14,0 C 92 % 1017,8 hPa 0,0 l/m 0 min 0 min 0,0 UV-I 0 W/m 0,0 km/h (0 Bft)
01.07.2013 02:36 15,6 C 14,0 C 92 % 1017,9 hPa 0,0 l/m 0 min 0 min 0,0 UV-I 0 W/m 2,6 km/h (1 Bft)
01.07.2013 02:38 15,6 C 14,0 C 92 % 1017,9 hPa 0,0 l/m 0 min 0 min 0,0 UV-I 0 W/m 5,1 km/h (1 Bft)
01.07.2013 02:40 15,6 C 14,0 C 92 % 1017,8 hPa 0,0 l/m 0 min 0 min 0,0 UV-I 0 W/m 0,0 km/h (0 Bft)
01.07.2013 02:42 15,5 C 14,0 C 92 % 1017,8 hPa 0,0 l/m 0 min 0 min 0,0 UV-I 0 W/m 2,6 km/h (1 Bft)
01.07.2013 02:44 15,5 C 14,0 C 92 % 1017,8 hPa 0,0 l/m 0 min 0 min 0,0 UV-I 0 W/m 7,7 km/h (2 Bft)
01.07.2013 02:46 15,5 C 14,0 C 92 % 1017,8 hPa 0,0 l/m 0 min 0 min 0,0 UV-I 0 W/m 0,0 km/h (0 Bft)
01.07.2013 02:48 15,4 C 14,0 C 92 % 1017,8 hPa 0,0 l/m 0 min 0 min 0,0 UV-I 0 W/m 0,0 km/h (0 Bft)
01.07.2013 02:50 15,4 C 14,0 C 92 % 1017,7 hPa 0,0 l/m 0 min 0 min 0,0 UV-I 0 W/m 2,6 km/h (1 Bft)
01.07.2013 02:52 15,4 C 14,0 C 92 % 1017,7 hPa 0,0 l/m 0 min 0 min 0,0 UV-I 0 W/m 0,0 km/h (0 Bft)
01.07.2013 02:54 15,4 C 14,0 C 92 % 1017,6 hPa 0,0 l/m 0 min 0 min 0,0 UV-I 0 W/m 5,1 km/h (1 Bft)
01.07.2013 02:56 15,4 C 14,0 C 93 % 1017,6 hPa 0,0 l/m 0 min 0 min 0,0 UV-I 0 W/m 2,6 km/h (1 Bft)
01.07.2013 02:58 15,4 C 14,0 C 92 % 1017,5 hPa 0,0 l/m 0 min 0 min 0,0 UV-I 0 W/m 0,0 km/h (0 Bft)
01.07.2013 03:00 15,4 C 14,0 C 92 % 1017,5 hPa 0,0 l/m 0 min 0 min 0,0 UV-I 0 W/m 0,0 km/h (0 Bft)
01.07.2013 03:02 15,4 C 14,0 C 93 % 1017,5 hPa 0,0 l/m 0 min 0 min 0,0 UV-I 0 W/m 2,6 km/h (1 Bft)
01.07.2013 03:06 15,3 C 14,0 C 93 % 1017,5 hPa 0,0 l/m 0 min 0 min 0,0 UV-I 0 W/m 5,1 km/h (1 Bft)
01.07.2013 03:08 15,3 C 14,0 C 93 % 1017,6 hPa 0,0 l/m 0 min 0 min 0,0 UV-I 0 W/m 7,7 km/h (2 Bft)
01.07.2013 03:10 15,3 C 14,0 C 93 % 1017,5 hPa 0,0 l/m 0 min 0 min 0,0 UV-I 0 W/m 7,7 km/h (2 Bft)
01.07.2013 03:12 15,3 C 14,0 C 93 % 1017,5 hPa 0,0 l/m 0 min 0 min 0,0 UV-I 0 W/m 0,0 km/h (0 Bft)
01.07.2013 03:14 15,3 C 14,0 C 93 % 1017,5 hPa 0,0 l/m 0 min 0 min 0,0 UV-I 0 W/m 0,0 km/h (0 Bft)
01.07.2013 03:16 15,3 C 13,4 C 93 % 1017,5 hPa 0,0 l/m 0 min 0 min 0,0 UV-I 0 W/m 2,6 km/h (1 Bft)
01.07.2013 03:18 15,3 C 13,4 C 93 % 1017,4 hPa 0,0 l/m 0 min 0 min 0,0 UV-I 0 W/m 7,7 km/h (2 Bft)
01.07.2013 03:20 15,3 C 14,0 C 93 % 1017,5 hPa 0,0 l/m 0 min 0 min 0,0 UV-I 0 W/m 7,7 km/h (2 Bft)
01.07.2013 03:22 15,3 C 14,0 C 93 % 1017,5 hPa 0,0 l/m 0 min 0 min 0,0 UV-I 0 W/m 2,6 km/h (1 Bft)
01.07.2013 03:24 15,2 C 14,0 C 93 % 1017,5 hPa 0,0 l/m 0 min 0 min 0,0 UV-I 0 W/m 0,0 km/h (0 Bft)
01.07.2013 03:26 15,2 C 14,0 C 93 % 1017,5 hPa 0,0 l/m 0 min 0 min 0,0 UV-I 0 W/m 0,0 km/h (0 Bft)
01.07.2013 03:28 15,2 C 14,0 C 93 % 1017,5 hPa 0,0 l/m 0 min 0 min 0,0 UV-I 0 W/m 5,1 km/h (1 Bft)
01.07.2013 03:30 15,2 C 14,0 C 93 % 1017,5 hPa 0,0 l/m 0 min 0 min 0,0 UV-I 0 W/m 2,6 km/h (1 Bft)
01.07.2013 03:32 15,2 C 14,0 C 93 % 1017,5 hPa 0,0 l/m 0 min 0 min 0,0 UV-I 0 W/m 5,1 km/h (1 Bft)
01.07.2013 03:34 15,2 C 14,0 C 93 % 1017,5 hPa 0,0 l/m 0 min 0 min 0,0 UV-I 0 W/m 2,6 km/h (1 Bft)
01.07.2013 03:36 15,2 C 14,0 C 93 % 1017,5 hPa 0,0 l/m 0 min 0 min 0,0 UV-I 0 W/m 0,0 km/h (0 Bft)
01.07.2013 03:38 15,2 C 13,4 C 93 % 1017,5 hPa 0,0 l/m 0 min 0 min 0,0 UV-I 0 W/m 0,0 km/h (0 Bft)
01.07.2013 03:40 15,2 C 13,4 C 93 % 1017,4 hPa 0,0 l/m 0 min 0 min 0,0 UV-I 0 W/m 2,6 km/h (1 Bft)
01.07.2013 03:42 15,2 C 13,4 C 94 % 1017,6 hPa 0,0 l/m 0 min 0 min 0,0 UV-I 0 W/m 0,0 km/h (0 Bft)
01.07.2013 03:44 15,1 C 13,4 C 94 % 1017,5 hPa 0,0 l/m 0 min 0 min 0,0 UV-I 0 W/m 2,6 km/h (1 Bft)
01.07.2013 03:46 15,1 C 13,4 C 93 % 1017,5 hPa 0,0 l/m 0 min 0 min 0,0 UV-I 0 W/m 0,0 km/h (0 Bft)
01.07.2013 03:48 15,1 C 13,4 C 93 % 1017,5 hPa 0,0 l/m 0 min 0 min 0,0 UV-I 0 W/m 0,0 km/h (0 Bft)
01.07.2013 03:50 15,1 C 13,4 C 93 % 1017,4 hPa 0,0 l/m 0 min 0 min 0,0 UV-I 0 W/m 0,0 km/h (0 Bft)
01.07.2013 03:52 15,1 C 13,4 C 93 % 1017,4 hPa 0,0 l/m 0 min 0 min 0,0 UV-I 0 W/m 0,0 km/h (0 Bft)
01.07.2013 03:54 15,0 C 13,4 C 93 % 1017,3 hPa 0,0 l/m 0 min 0 min 0,0 UV-I 0 W/m 2,6 km/h (1 Bft)
01.07.2013 03:56 15,0 C 13,4 C 93 % 1017,4 hPa 0,0 l/m 0 min 0 min 0,0 UV-I 0 W/m 0,0 km/h (0 Bft)
01.07.2013 03:58 15,0 C 13,4 C 93 % 1017,3 hPa 0,0 l/m 0 min 0 min 0,0 UV-I 0 W/m 0,0 km/h (0 Bft)
01.07.2013 04:00 14,9 C 13,4 C 93 % 1017,3 hPa 0,0 l/m 0 min 0 min 0,0 UV-I 0 W/m 0,0 km/h (0 Bft)
01.07.2013 04:02 14,9 C 13,4 C 93 % 1017,3 hPa 0,0 l/m 0 min 0 min 0,0 UV-I 0 W/m 0,0 km/h (0 Bft)
01.07.2013 04:06 14,9 C 13,4 C 94 % 1017,2 hPa 0,0 l/m 0 min 0 min 0,0 UV-I 0 W/m 5,1 km/h (1 Bft)
01.07.2013 04:08 14,9 C 13,4 C 94 % 1017,3 hPa 0,0 l/m 0 min 0 min 0,0 UV-I 0 W/m 10,3 km/h (2 Bft)
01.07.2013 04:10 14,9 C 13,4 C 94 % 1017,2 hPa 0,0 l/m 0 min 0 min 0,0 UV-I 0 W/m 0,0 km/h (0 Bft)
01.07.2013 04:12 14,8 C 13,4 C 94 % 1017,2 hPa 0,0 l/m 0 min 0 min 0,0 UV-I 0 W/m 2,6 km/h (1 Bft)
01.07.2013 04:14 14,8 C 13,4 C 94 % 1017,2 hPa 0,0 l/m 0 min 0 min 0,0 UV-I 0 W/m 0,0 km/h (0 Bft)
01.07.2013 04:16 14,8 C 13,4 C 94 % 1017,3 hPa 0,0 l/m 0 min 0 min 0,0 UV-I 0 W/m 0,0 km/h (0 Bft)
01.07.2013 04:18 14,8 C 13,4 C 94 % 1017,3 hPa 0,0 l/m 0 min 0 min 0,0 UV-I 0 W/m 2,6 km/h (1 Bft)
01.07.2013 04:20 14,8 C 13,4 C 94 % 1017,2 hPa 0,0 l/m 0 min 0 min 0,0 UV-I 0 W/m 5,1 km/h (1 Bft)
01.07.2013 04:22 14,8 C 13,4 C 96 % 1017,2 hPa 0,0 l/m 0 min 0 min 0,0 UV-I 0 W/m 5,1 km/h (1 Bft)
01.07.2013 04:24 14,8 C 13,4 C 94 % 1017,2 hPa 0,0 l/m 0 min 0 min 0,0 UV-I 0 W/m 0,0 km/h (0 Bft)
01.07.2013 04:26 14,8 C 12,9 C 94 % 1017,2 hPa 0,0 l/m 0 min 0 min 0,0 UV-I 0 W/m 0,0 km/h (0 Bft)
01.07.2013 04:28 14,7 C 12,9 C 94 % 1017,1 hPa 0,0 l/m 0 min 0 min 0,0 UV-I 0 W/m 0,0 km/h (0 Bft)
01.07.2013 04:30 14,7 C 13,4 C 94 % 1017,1 hPa 0,0 l/m 0 min 0 min 0,0 UV-I 0 W/m 0,0 km/h (0 Bft)
01.07.2013 04:32 14,7 C 13,4 C 94 % 1017,1 hPa 0,0 l/m 0 min 0 min 0,0 UV-I 0 W/m 0,0 km/h (0 Bft)
01.07.2013 04:34 14,7 C 13,4 C 94 % 1017,1 hPa 0,0 l/m 0 min 0 min 0,0 UV-I 0 W/m 0,0 km/h (0 Bft)
01.07.2013 04:36 14,7 C 13,4 C 94 % 1017,1 hPa 0,0 l/m 0 min 0 min 0,0 UV-I 0 W/m 2,6 km/h (1 Bft)
01.07.2013 04:38 14,7 C 13,4 C 94 % 1017,1 hPa 0,0 l/m 0 min 0 min 0,0 UV-I 0 W/m 0,0 km/h (0 Bft)
01.07.2013 04:40 14,7 C 12,9 C 94 % 1017,1 hPa 0,0 l/m 0 min 0 min 0,0 UV-I 0 W/m 0,0 km/h (0 Bft)
01.07.2013 04:42 14,7 C 12,9 C 94 % 1017,1 hPa 0,0 l/m 0 min 0 min 0,0 UV-I 0 W/m 0,0 km/h (0 Bft)
01.07.2013 04:44 14,6 C 12,9 C 94 % 1017,1 hPa 0,0 l/m 0 min 0 min 0,0 UV-I 0 W/m 0,0 km/h (0 Bft)
01.07.2013 04:46 14,6 C 12,9 C 94 % 1017,0 hPa 0,0 l/m 0 min 0 min 0,0 UV-I 0 W/m 5,1 km/h (1 Bft)
01.07.2013 04:48 14,6 C 12,9 C 94 % 1016,9 hPa 0,0 l/m 0 min 0 min 0,0 UV-I 0 W/m 2,6 km/h (1 Bft)
01.07.2013 04:50 14,6 C 12,9 C 94 % 1017,0 hPa 0,0 l/m 0 min 0 min 0,0 UV-I 0 W/m 0,0 km/h (0 Bft)
01.07.2013 04:52 14,6 C 12,9 C 94 % 1017,0 hPa 0,0 l/m 0 min 0 min 0,0 UV-I 0 W/m 0,0 km/h (0 Bft)
01.07.2013 04:54 14,6 C 12,9 C 94 % 1017,0 hPa 0,0 l/m 0 min 0 min 0,0 UV-I 0 W/m 5,1 km/h (1 Bft)
01.07.2013 04:56 14,6 C 12,9 C 94 % 1017,0 hPa 0,0 l/m 0 min 0 min 0,0 UV-I 0 W/m 2,6 km/h (1 Bft)
01.07.2013 04:58 14,6 C 12,9 C 94 % 1017,0 hPa 0,0 l/m 0 min 0 min 0,0 UV-I 0 W/m 7,7 km/h (2 Bft)
01.07.2013 05:00 14,6 C 12,9 C 95 % 1017,0 hPa 0,0 l/m 0 min 0 min 0,0 UV-I 0 W/m 2,6 km/h (1 Bft)
01.07.2013 05:02 14,5 C 12,9 C 95 % 1017,0 hPa 0,0 l/m 0 min 0 min 0,0 UV-I 0 W/m 0,0 km/h (0 Bft)
01.07.2013 05:06 14,5 C 12,9 C 94 % 1017,0 hPa 0,0 l/m 0 min 0 min 0,0 UV-I 0 W/m 0,0 km/h (0 Bft)
01.07.2013 05:08 14,4 C 12,9 C 94 % 1017,0 hPa 0,0 l/m 0 min 0 min 0,0 UV-I 0 W/m 0,0 km/h (0 Bft)
01.07.2013 05:10 14,4 C 12,9 C 94 % 1017,0 hPa 0,0 l/m 0 min 0 min 0,0 UV-I 0 W/m 0,0 km/h (0 Bft)
01.07.2013 05:12 14,4 C 12,9 C 94 % 1016,9 hPa 0,0 l/m 0 min 0 min 0,0 UV-I 0 W/m 0,0 km/h (0 Bft)
01.07.2013 05:14 14,4 C 12,9 C 95 % 1017,0 hPa 0,0 l/m 0 min 0 min 0,0 UV-I 0 W/m 0,0 km/h (0 Bft)
01.07.2013 05:16 14,4 C 12,9 C 95 % 1016,9 hPa 0,0 l/m 0 min 0 min 0,0 UV-I 0 W/m 0,0 km/h (0 Bft)
01.07.2013 05:18 14,4 C 12,9 C 95 % 1016,9 hPa 0,0 l/m 0 min 0 min 0,0 UV-I 0 W/m 0,0 km/h (0 Bft)
01.07.2013 05:20 14,4 C 12,9 C 95 % 1016,9 hPa 0,0 l/m 0 min 0 min 0,0 UV-I 5 W/m 0,0 km/h (0 Bft)
01.07.2013 05:22 14,3 C 12,9 C 95 % 1016,9 hPa 0,0 l/m 0 min 0 min 0,0 UV-I 5 W/m 0,0 km/h (0 Bft)
01.07.2013 05:24 14,3 C 12,9 C 95 % 1016,9 hPa 0,0 l/m 0 min 0 min 0,0 UV-I 5 W/m 2,6 km/h (1 Bft)
01.07.2013 05:26 14,3 C 12,9 C 95 % 1017,0 hPa 0,0 l/m 0 min 0 min 0,0 UV-I 5 W/m 0,0 km/h (0 Bft)
01.07.2013 05:28 14,3 C 12,9 C 95 % 1017,0 hPa 0,0 l/m 0 min 0 min 0,0 UV-I 5 W/m 0,0 km/h (0 Bft)
01.07.2013 05:30 14,3 C 12,9 C 95 % 1016,9 hPa 0,0 l/m 0 min 0 min 0,0 UV-I 5 W/m 0,0 km/h (0 Bft)
01.07.2013 05:32 14,3 C 12,9 C 95 % 1017,0 hPa 0,0 l/m 0 min 0 min 0,0 UV-I 5 W/m 0,0 km/h (0 Bft)
01.07.2013 05:34 14,3 C 12,9 C 95 % 1017,0 hPa 0,0 l/m 0 min 0 min 0,0 UV-I 7 W/m 0,0 km/h (0 Bft)
01.07.2013 05:36 14,3 C 12,9 C 95 % 1017,0 hPa 0,0 l/m 0 min 0 min 0,0 UV-I 7 W/m 2,6 km/h (1 Bft)
01.07.2013 05:38 14,3 C 12,9 C 95 % 1017,0 hPa 0,0 l/m 0 min 0 min 0,0 UV-I 9 W/m 0,0 km/h (0 Bft)
01.07.2013 05:40 14,2 C 12,9 C 95 % 1016,9 hPa 0,0 l/m 0 min 0 min 0,0 UV-I 9 W/m 0,0 km/h (0 Bft)
01.07.2013 05:42 14,3 C 12,9 C 95 % 1016,9 hPa 0,0 l/m 0 min 0 min 0,0 UV-I 11 W/m 0,0 km/h (0 Bft)
01.07.2013 05:44 14,2 C 12,9 C 95 % 1017,0 hPa 0,0 l/m 0 min 0 min 0,0 UV-I 12 W/m 0,0 km/h (0 Bft)
01.07.2013 05:46 14,2 C 12,9 C 95 % 1017,0 hPa 0,0 l/m 0 min 0 min 0,0 UV-I 12 W/m 0,0 km/h (0 Bft)
01.07.2013 05:48 14,2 C 12,9 C 95 % 1017,0 hPa 0,0 l/m 0 min 0 min 0,0 UV-I 14 W/m 0,0 km/h (0 Bft)
01.07.2013 05:50 14,2 C 12,9 C 95 % 1016,9 hPa 0,0 l/m 0 min 0 min 0,0 UV-I 14 W/m 0,0 km/h (0 Bft)
01.07.2013 05:52 14,2 C 12,9 C 95 % 1016,9 hPa 0,0 l/m 0 min 0 min 0,0 UV-I 14 W/m 0,0 km/h (0 Bft)
01.07.2013 05:54 14,2 C 12,9 C 95 % 1016,9 hPa 0,0 l/m 0 min 0 min 0,0 UV-I 16 W/m 5,1 km/h (1 Bft)
01.07.2013 05:56 14,2 C 12,9 C 95 % 1016,9 hPa 0,0 l/m 0 min 0 min 0,0 UV-I 16 W/m 5,1 km/h (1 Bft)
01.07.2013 05:58 14,2 C 12,9 C 95 % 1016,9 hPa 0,0 l/m 0 min 0 min 0,0 UV-I 18 W/m 7,7 km/h (2 Bft)
01.07.2013 06:00 14,2 C 12,9 C 95 % 1016,8 hPa 0,0 l/m 0 min 0 min 0,0 UV-I 19 W/m 2,6 km/h (1 Bft)
01.07.2013 06:02 14,2 C 12,9 C 95 % 1016,9 hPa 0,0 l/m 0 min 0 min 0,0 UV-I 21 W/m 5,1 km/h (1 Bft)
01.07.2013 06:06 14,2 C 13,4 C 96 % 1016,9 hPa 0,0 l/m 0 min 0 min 0,0 UV-I 23 W/m 10,3 km/h (2 Bft)
01.07.2013 06:08 14,2 C 13,4 C 96 % 1016,9 hPa 0,0 l/m 0 min 0 min 0,0 UV-I 25 W/m 2,6 km/h (1 Bft)
01.07.2013 06:10 14,2 C 13,4 C 95 % 1016,9 hPa 0,0 l/m 0 min 0 min 0,0 UV-I 26 W/m 2,6 km/h (1 Bft)
01.07.2013 06:12 14,2 C 13,4 C 95 % 1016,9 hPa 0,0 l/m 0 min 0 min 0,0 UV-I 28 W/m 0,0 km/h (0 Bft)
01.07.2013 06:14 14,2 C 13,4 C 95 % 1017,0 hPa 0,0 l/m 0 min 0 min 0,0 UV-I 28 W/m 0,0 km/h (0 Bft)
01.07.2013 06:16 14,2 C 13,4 C 96 % 1017,0 hPa 0,0 l/m 0 min 0 min 0,0 UV-I 26 W/m 0,0 km/h (0 Bft)
01.07.2013 06:18 14,2 C 13,4 C 96 % 1016,9 hPa 0,0 l/m 0 min 0 min 0,0 UV-I 25 W/m 7,7 km/h (2 Bft)
01.07.2013 06:20 14,2 C 13,4 C 96 % 1016,9 hPa 0,0 l/m 0 min 0 min 0,0 UV-I 23 W/m 5,1 km/h (1 Bft)
01.07.2013 06:22 14,3 C 13,4 C 96 % 1016,9 hPa 0,0 l/m 0 min 0 min 0,0 UV-I 21 W/m 5,1 km/h (1 Bft)
01.07.2013 06:24 14,3 C 13,4 C 96 % 1016,9 hPa 0,0 l/m 0 min 0 min 0,0 UV-I 23 W/m 0,0 km/h (0 Bft)
01.07.2013 06:26 14,3 C 13,4 C 96 % 1016,9 hPa 0,0 l/m 0 min 0 min 0,0 UV-I 21 W/m 2,6 km/h (1 Bft)
01.07.2013 06:28 14,3 C 13,4 C 96 % 1016,9 hPa 0,0 l/m 0 min 0 min 0,0 UV-I 21 W/m 5,1 km/h (1 Bft)
01.07.2013 06:30 14,3 C 13,4 C 96 % 1017,0 hPa 0,0 l/m 0 min 0 min 0,0 UV-I 25 W/m 0,0 km/h (0 Bft)
01.07.2013 06:32 14,3 C 13,4 C 96 % 1017,0 hPa 0,0 l/m 0 min 0 min 0,0 UV-I 21 W/m 10,3 km/h (2 Bft)
01.07.2013 06:34 14,3 C 13,4 C 96 % 1017,0 hPa 0,0 l/m 0 min 0 min 0,0 UV-I 23 W/m 0,0 km/h (0 Bft)
01.07.2013 06:36 14,3 C 13,4 C 96 % 1017,1 hPa 0,0 l/m 0 min 0 min 0,0 UV-I 26 W/m 0,0 km/h (0 Bft)
01.07.2013 06:38 14,3 C 13,4 C 96 % 1017,0 hPa 0,0 l/m 0 min 0 min 0,0 UV-I 28 W/m 5,1 km/h (1 Bft)
01.07.2013 06:40 14,3 C 13,4 C 96 % 1017,1 hPa 0,0 l/m 0 min 0 min 0,0 UV-I 28 W/m 5,1 km/h (1 Bft)
01.07.2013 06:42 14,3 C 13,4 C 96 % 1017,1 hPa 0,0 l/m 0 min 0 min 0,0 UV-I 32 W/m 7,7 km/h (2 Bft)
01.07.2013 06:44 14,3 C 13,4 C 96 % 1017,1 hPa 0,0 l/m 0 min 0 min 0,0 UV-I 33 W/m 5,1 km/h (1 Bft)
01.07.2013 06:46 14,3 C 13,4 C 96 % 1017,1 hPa 0,0 l/m 0 min 0 min 0,0 UV-I 37 W/m 0,0 km/h (0 Bft)
01.07.2013 06:48 14,4 C 13,4 C 96 % 1017,1 hPa 0,0 l/m 0 min 0 min 0,0 UV-I 53 W/m 5,1 km/h (1 Bft)
01.07.2013 06:50 14,4 C 13,4 C 96 % 1017,1 hPa 0,0 l/m 0 min 0 min 0,0 UV-I 54 W/m 2,6 km/h (1 Bft)
01.07.2013 06:52 14,4 C 14,0 C 96 % 1017,1 hPa 0,0 l/m 0 min 0 min 0,0 UV-I 53 W/m 5,1 km/h (1 Bft)
01.07.2013 06:54 14,4 C 14,0 C 96 % 1017,1 hPa 0,0 l/m 0 min 0 min 0,0 UV-I 74 W/m 7,7 km/h (2 Bft)
01.07.2013 06:56 14,4 C 14,0 C 96 % 1017,2 hPa 0,0 l/m 0 min 0 min 0,0 UV-I 77 W/m 7,7 km/h (2 Bft)
01.07.2013 06:58 14,5 C 14,0 C 96 % 1017,1 hPa 0,0 l/m 0 min 0 min 0,0 UV-I 95 W/m 0,0 km/h (0 Bft)
01.07.2013 07:00 14,6 C 14,0 C 96 % 1017,2 hPa 0,0 l/m 0 min 0 min 0,0 UV-I 95 W/m 2,6 km/h (1 Bft)
01.07.2013 07:02 14,6 C 14,6 C 96 % 1017,1 hPa 0,0 l/m 0 min 0 min 0,0 UV-I 105 W/m 2,6 km/h (1 Bft)
01.07.2013 07:06 14,7 C 14,6 C 96 % 1017,0 hPa 0,0 l/m 0 min 0 min 0,0 UV-I 121 W/m 10,3 km/h (2 Bft)
01.07.2013 07:08 14,8 C 14,6 C 97 % 1017,0 hPa 0,0 l/m 0 min 0 min 0,0 UV-I 120 W/m 7,7 km/h (2 Bft)
01.07.2013 07:10 14,8 C 14,6 C 97 % 1017,0 hPa 0,0 l/m 0 min 0 min 0,0 UV-I 120 W/m 15,4 km/h (3 Bft)
01.07.2013 07:12 14,9 C 15,1 C 97 % 1017,1 hPa 0,0 l/m 0 min 0 min 0,0 UV-I 114 W/m 5,1 km/h (1 Bft)
01.07.2013 07:14 14,9 C 15,1 C 97 % 1017,0 hPa 0,0 l/m 0 min 0 min 0,0 UV-I 100 W/m 10,3 km/h (2 Bft)
01.07.2013 07:16 15,1 C 15,1 C 97 % 1017,1 hPa 0,0 l/m 0 min 0 min 0,0 UV-I 88 W/m 10,3 km/h (2 Bft)
01.07.2013 07:18 15,1 C 15,1 C 97 % 1017,0 hPa 0,0 l/m 0 min 0 min 0,0 UV-I 84 W/m 10,3 km/h (2 Bft)
01.07.2013 07:20 15,2 C 15,1 C 97 % 1016,9 hPa 0,0 l/m 0 min 0 min 0,0 UV-I 83 W/m 18,0 km/h (3 Bft)
01.07.2013 07:22 15,2 C 15,1 C 97 % 1017,1 hPa 0,0 l/m 0 min 0 min 0,0 UV-I 84 W/m 23,2 km/h (4 Bft)
01.07.2013 07:24 15,2 C 15,1 C 97 % 1017,1 hPa 0,0 l/m 0 min 0 min 0,0 UV-I 83 W/m 7,7 km/h (2 Bft)
01.07.2013 07:26 15,2 C 15,1 C 97 % 1017,0 hPa 0,0 l/m 0 min 0 min 0,0 UV-I 83 W/m 5,1 km/h (1 Bft)
01.07.2013 07:28 15,3 C 15,1 C 97 % 1017,0 hPa 0,0 l/m 0 min 0 min 0,0 UV-I 81 W/m 0,0 km/h (0 Bft)
01.07.2013 07:30 15,3 C 14,6 C 96 % 1017,1 hPa 0,0 l/m 0 min 0 min 0,0 UV-I 79 W/m 15,4 km/h (3 Bft)
01.07.2013 07:32 15,3 C 14,6 C 96 % 1017,0 hPa 0,0 l/m 0 min 0 min 0,0 UV-I 77 W/m 2,6 km/h (1 Bft)
01.07.2013 07:34 15,3 C 14,6 C 96 % 1017,0 hPa 0,0 l/m 0 min 0 min 0,0 UV-I 69 W/m 7,7 km/h (2 Bft)
01.07.2013 07:36 15,3 C 14,6 C 96 % 1017,0 hPa 0,0 l/m 0 min 0 min 0,0 UV-I 51 W/m 10,3 km/h (2 Bft)
01.07.2013 07:38 15,3 C 14,6 C 96 % 1017,0 hPa 0,0 l/m 0 min 0 min 0,0 UV-I 49 W/m 7,7 km/h (2 Bft)
01.07.2013 07:40 15,3 C 14,6 C 96 % 1017,1 hPa 0,0 l/m 0 min 0 min 0,0 UV-I 42 W/m 12,9 km/h (3 Bft)
01.07.2013 07:42 15,3 C 14,6 C 96 % 1017,1 hPa 0,0 l/m 0 min 0 min 0,0 UV-I 37 W/m 10,3 km/h (2 Bft)
01.07.2013 07:44 15,4 C 14,6 C 96 % 1017,1 hPa 0,0 l/m 0 min 0 min 0,0 UV-I 44 W/m 10,3 km/h (2 Bft)
01.07.2013 07:46 15,4 C 14,6 C 95 % 1017,1 hPa 0,0 l/m 0 min 0 min 0,0 UV-I 63 W/m 10,3 km/h (2 Bft)
01.07.2013 07:48 15,4 C 14,6 C 95 % 1017,1 hPa 0,0 l/m 0 min 0 min 0,0 UV-I 58 W/m 12,9 km/h (3 Bft)
01.07.2013 07:50 15,4 C 15,1 C 95 % 1017,1 hPa 0,0 l/m 0 min 0 min 0,0 UV-I 100 W/m 2,6 km/h (1 Bft)
01.07.2013 07:52 15,4 C 15,1 C 95 % 1017,1 hPa 0,0 l/m 0 min 0 min 0,0 UV-I 114 W/m 7,7 km/h (2 Bft)
01.07.2013 07:54 15,4 C 15,1 C 95 % 1017,0 hPa 0,0 l/m 0 min 0 min 0,0 UV-I 118 W/m 10,3 km/h (2 Bft)
01.07.2013 07:56 15,4 C 15,1 C 95 % 1017,1 hPa 0,0 l/m 0 min 0 min 0,0 UV-I 118 W/m 7,7 km/h (2 Bft)
01.07.2013 07:58 15,5 C 15,1 C 95 % 1017,1 hPa 0,0 l/m 0 min 0 min 0,0 UV-I 118 W/m 0,0 km/h (0 Bft)
01.07.2013 08:00 15,6 C 15,1 C 95 % 1017,0 hPa 0,0 l/m 0 min 0 min 0,0 UV-I 132 W/m 10,3 km/h (2 Bft)
01.07.2013 08:02 15,6 C 15,7 C 95 % 1017,0 hPa 0,0 l/m 0 min 0 min 0,0 UV-I 128 W/m 2,6 km/h (1 Bft)
01.07.2013 08:06 15,6 C 15,7 C 94 % 1017,1 hPa 0,0 l/m 0 min 0 min 0,0 UV-I 134 W/m 15,4 km/h (3 Bft)
01.07.2013 08:08 15,6 C 15,7 C 94 % 1017,1 hPa 0,0 l/m 0 min 0 min 0,0 UV-I 148 W/m 10,3 km/h (2 Bft)
01.07.2013 08:10 15,7 C 15,7 C 94 % 1017,0 hPa 0,0 l/m 0 min 0 min 0,0 UV-I 137 W/m 10,3 km/h (2 Bft)
01.07.2013 08:12 15,7 C 15,7 C 94 % 1017,0 hPa 0,0 l/m 0 min 0 min 0,0 UV-I 141 W/m 12,9 km/h (3 Bft)
01.07.2013 08:14 15,7 C 15,7 C 94 % 1017,1 hPa 0,0 l/m 0 min 0 min 0,0 UV-I 134 W/m 15,4 km/h (3 Bft)
01.07.2013 08:16 15,7 C 15,7 C 94 % 1017,1 hPa 0,0 l/m 0 min 0 min 0,0 UV-I 135 W/m 7,7 km/h (2 Bft)
01.07.2013 08:18 15,7 C 15,7 C 94 % 1017,1 hPa 0,0 l/m 0 min 0 min 0,0 UV-I 135 W/m 12,9 km/h (3 Bft)
01.07.2013 08:20 15,7 C 15,7 C 94 % 1017,2 hPa 0,0 l/m 0 min 0 min 0,0 UV-I 141 W/m 10,3 km/h (2 Bft)
01.07.2013 08:22 15,8 C 15,7 C 93 % 1017,1 hPa 0,0 l/m 0 min 0 min 0,0 UV-I 130 W/m 7,7 km/h (2 Bft)
01.07.2013 08:24 15,8 C 15,7 C 93 % 1017,1 hPa 0,0 l/m 0 min 0 min 0,0 UV-I 160 W/m 18,0 km/h (3 Bft)
01.07.2013 08:26 15,8 C 15,7 C 93 % 1017,1 hPa 0,0 l/m 0 min 0 min 0,0 UV-I 151 W/m 12,9 km/h (3 Bft)
01.07.2013 08:28 15,8 C 15,7 C 93 % 1017,1 hPa 0,0 l/m 0 min 0 min 0,0 UV-I 197 W/m 5,1 km/h (1 Bft)
01.07.2013 08:30 15,8 C 15,7 C 93 % 1017,1 hPa 0,0 l/m 0 min 0 min 0,0 UV-I 190 W/m 7,7 km/h (2 Bft)
01.07.2013 08:32 15,8 C 15,7 C 93 % 1017,1 hPa 0,0 l/m 0 min 0 min 0,0 UV-I 192 W/m 10,3 km/h (2 Bft)
01.07.2013 08:34 15,8 C 15,7 C 93 % 1017,1 hPa 0,0 l/m 0 min 0 min 0,0 UV-I 213 W/m 12,9 km/h (3 Bft)
01.07.2013 08:36 15,9 C 15,7 C 92 % 1017,1 hPa 0,0 l/m 0 min 0 min 0,0 UV-I 225 W/m 7,7 km/h (2 Bft)
01.07.2013 08:38 15,9 C 15,7 C 92 % 1017,2 hPa 0,0 l/m 0 min 0 min 0,0 UV-I 199 W/m 0,0 km/h (0 Bft)
01.07.2013 08:40 15,9 C 16,2 C 92 % 1017,1 hPa 0,0 l/m 0 min 0 min 0,0 UV-I 209 W/m 7,7 km/h (2 Bft)
01.07.2013 08:42 16,0 C 16,2 C 92 % 1017,1 hPa 0,0 l/m 0 min 0 min 0,0 UV-I 176 W/m 2,6 km/h (1 Bft)
01.07.2013 08:44 16,1 C 16,2 C 92 % 1017,1 hPa 0,0 l/m 0 min 0 min 0,0 UV-I 137 W/m 7,7 km/h (2 Bft)
01.07.2013 08:46 16,1 C 16,2 C 92 % 1017,1 hPa 0,0 l/m 0 min 0 min 0,0 UV-I 111 W/m 7,7 km/h (2 Bft)
01.07.2013 08:48 16,1 C 15,7 C 92 % 1017,1 hPa 0,0 l/m 0 min 0 min 0,0 UV-I 111 W/m 7,7 km/h (2 Bft)
01.07.2013 08:50 16,1 C 15,7 C 92 % 1017,2 hPa 0,0 l/m 0 min 0 min 0,0 UV-I 169 W/m 2,6 km/h (1 Bft)
01.07.2013 08:52 16,2 C 15,7 C 92 % 1017,2 hPa 0,0 l/m 0 min 0 min 0,5 UV-I 229 W/m 2,6 km/h (1 Bft)
01.07.2013 08:54 16,2 C 15,7 C 92 % 1017,2 hPa 0,0 l/m 0 min 0 min 0,5 UV-I 216 W/m 7,7 km/h (2 Bft)
01.07.2013 08:56 16,2 C 15,7 C 91 % 1017,3 hPa 0,0 l/m 0 min 0 min 0,0 UV-I 193 W/m 10,3 km/h (2 Bft)
01.07.2013 08:58 16,2 C 15,7 C 91 % 1017,3 hPa 0,0 l/m 0 min 0 min 0,0 UV-I 178 W/m 10,3 km/h (2 Bft)
01.07.2013 09:00 16,2 C 16,2 C 91 % 1017,2 hPa 0,0 l/m 0 min 0 min 0,0 UV-I 225 W/m 7,7 km/h (2 Bft)
01.07.2013 09:02 16,3 C 16,2 C 91 % 1017,3 hPa 0,0 l/m 0 min 0 min 0,0 UV-I 213 W/m 10,3 km/h (2 Bft)
01.07.2013 09:06 16,3 C 16,2 C 91 % 1017,3 hPa 0,0 l/m 0 min 0 min 0,0 UV-I 155 W/m 12,9 km/h (3 Bft)
01.07.2013 09:08 16,4 C 16,2 C 91 % 1017,3 hPa 0,0 l/m 0 min 0 min 0,0 UV-I 160 W/m 0,0 km/h (0 Bft)
01.07.2013 09:10 16,4 C 16,2 C 91 % 1017,3 hPa 0,0 l/m 0 min 0 min 0,0 UV-I 176 W/m 0,0 km/h (0 Bft)
01.07.2013 09:12 16,4 C 16,2 C 91 % 1017,3 hPa 0,0 l/m 0 min 0 min 0,0 UV-I 167 W/m 12,9 km/h (3 Bft)
01.07.2013 09:14 16,4 C 16,2 C 90 % 1017,4 hPa 0,0 l/m 0 min 0 min 0,0 UV-I 151 W/m 0,0 km/h (0 Bft)
01.07.2013 09:16 16,5 C 16,2 C 90 % 1017,4 hPa 0,0 l/m 0 min 0 min 0,0 UV-I 160 W/m 5,1 km/h (1 Bft)
01.07.2013 09:18 16,5 C 16,2 C 90 % 1017,3 hPa 0,0 l/m 0 min 0 min 0,0 UV-I 165 W/m 7,7 km/h (2 Bft)
01.07.2013 09:20 16,6 C 16,2 C 90 % 1017,4 hPa 0,0 l/m 0 min 0 min 0,0 UV-I 158 W/m 5,1 km/h (1 Bft)
01.07.2013 09:22 16,6 C 16,2 C 90 % 1017,4 hPa 0,0 l/m 0 min 0 min 0,0 UV-I 153 W/m 0,0 km/h (0 Bft)
01.07.2013 09:24 16,6 C 16,2 C 90 % 1017,4 hPa 0,0 l/m 0 min 0 min 0,0 UV-I 151 W/m 2,6 km/h (1 Bft)
01.07.2013 09:26 16,6 C 16,2 C 90 % 1017,4 hPa 0,0 l/m 0 min 0 min 0,0 UV-I 142 W/m 2,6 km/h (1 Bft)
01.07.2013 09:28 16,6 C 16,2 C 90 % 1017,4 hPa 0,0 l/m 0 min 0 min 0,0 UV-I 139 W/m 7,7 km/h (2 Bft)
01.07.2013 09:30 16,6 C 16,2 C 89 % 1017,4 hPa 0,0 l/m 0 min 0 min 0,0 UV-I 149 W/m 0,0 km/h (0 Bft)
01.07.2013 09:32 16,6 C 16,2 C 89 % 1017,4 hPa 0,0 l/m 0 min 0 min 0,0 UV-I 163 W/m 0,0 km/h (0 Bft)
01.07.2013 09:34 16,7 C 16,2 C 89 % 1017,4 hPa 0,0 l/m 0 min 0 min 0,0 UV-I 155 W/m 2,6 km/h (1 Bft)
01.07.2013 09:36 16,6 C 16,2 C 89 % 1017,5 hPa 0,0 l/m 0 min 0 min 0,0 UV-I 148 W/m 7,7 km/h (2 Bft)
01.07.2013 09:38 16,7 C 16,2 C 89 % 1017,4 hPa 0,0 l/m 0 min 0 min 0,0 UV-I 142 W/m 7,7 km/h (2 Bft)
01.07.2013 09:40 16,7 C 16,2 C 89 % 1017,4 hPa 0,0 l/m 0 min 0 min 0,0 UV-I 137 W/m 5,1 km/h (1 Bft)
01.07.2013 09:42 16,6 C 16,2 C 89 % 1017,4 hPa 0,0 l/m 0 min 0 min 0,0 UV-I 149 W/m 0,0 km/h (0 Bft)
01.07.2013 09:44 16,7 C 16,2 C 89 % 1017,4 hPa 0,0 l/m 0 min 0 min 0,0 UV-I 167 W/m 2,6 km/h (1 Bft)
01.07.2013 09:46 16,7 C 16,2 C 89 % 1017,5 hPa 0,0 l/m 0 min 0 min 0,0 UV-I 167 W/m 0,0 km/h (0 Bft)
01.07.2013 09:48 16,7 C 16,2 C 89 % 1017,4 hPa 0,0 l/m 0 min 0 min 0,0 UV-I 160 W/m 5,1 km/h (1 Bft)
01.07.2013 09:50 16,7 C 16,2 C 89 % 1017,4 hPa 0,0 l/m 0 min 0 min 0,0 UV-I 146 W/m 0,0 km/h (0 Bft)
01.07.2013 09:52 16,7 C 16,2 C 89 % 1017,5 hPa 0,0 l/m 0 min 0 min 0,0 UV-I 148 W/m 12,9 km/h (3 Bft)
01.07.2013 09:54 16,7 C 16,2 C 88 % 1017,4 hPa 0,0 l/m 0 min 0 min 0,0 UV-I 142 W/m 7,7 km/h (2 Bft)
01.07.2013 09:56 16,7 C 16,2 C 88 % 1017,4 hPa 0,0 l/m 0 min 0 min 0,0 UV-I 132 W/m 12,9 km/h (3 Bft)
01.07.2013 09:58 16,7 C 16,2 C 88 % 1017,5 hPa 0,0 l/m 0 min 0 min 0,0 UV-I 120 W/m 7,7 km/h (2 Bft)
01.07.2013 10:00 16,6 C 15,7 C 88 % 1017,4 hPa 0,0 l/m 0 min 0 min 0,0 UV-I 114 W/m 12,9 km/h (3 Bft)
01.07.2013 10:02 16,6 C 15,7 C 88 % 1017,5 hPa 0,0 l/m 0 min 0 min 0,0 UV-I 109 W/m 2,6 km/h (1 Bft)
01.07.2013 10:06 16,6 C 15,7 C 88 % 1017,6 hPa 0,0 l/m 0 min 0 min 0,0 UV-I 109 W/m 7,7 km/h (2 Bft)
01.07.2013 10:08 16,6 C 15,7 C 88 % 1017,6 hPa 0,0 l/m 0 min 0 min 0,0 UV-I 107 W/m 0,0 km/h (0 Bft)
01.07.2013 10:10 16,5 C 15,7 C 88 % 1017,5 hPa 0,0 l/m 0 min 0 min 0,0 UV-I 116 W/m 2,6 km/h (1 Bft)
01.07.2013 10:12 16,5 C 15,7 C 88 % 1017,5 hPa 0,0 l/m 0 min 0 min 0,0 UV-I 114 W/m 0,0 km/h (0 Bft)
01.07.2013 10:14 16,5 C 15,7 C 89 % 1017,5 hPa 0,0 l/m 0 min 0 min 0,0 UV-I 118 W/m 0,0 km/h (0 Bft)
01.07.2013 10:16 16,5 C 15,7 C 89 % 1017,5 hPa 0,0 l/m 0 min 0 min 0,0 UV-I 125 W/m 0,0 km/h (0 Bft)
01.07.2013 10:18 16,5 C 15,7 C 89 % 1017,5 hPa 0,0 l/m 0 min 0 min 0,0 UV-I 121 W/m 2,6 km/h (1 Bft)
01.07.2013 10:20 16,5 C 15,7 C 89 % 1017,5 hPa 0,0 l/m 0 min 0 min 0,0 UV-I 123 W/m 0,0 km/h (0 Bft)
01.07.2013 10:22 16,5 C 15,7 C 89 % 1017,5 hPa 0,0 l/m 0 min 0 min 0,0 UV-I 128 W/m 7,7 km/h (2 Bft)
01.07.2013 10:24 16,5 C 15,7 C 89 % 1017,6 hPa 0,0 l/m 0 min 0 min 0,0 UV-I 128 W/m 5,1 km/h (1 Bft)
01.07.2013 10:26 16,4 C 15,7 C 89 % 1017,5 hPa 0,0 l/m 0 min 0 min 0,0 UV-I 118 W/m 7,7 km/h (2 Bft)
01.07.2013 10:28 16,4 C 15,7 C 89 % 1017,6 hPa 0,0 l/m 0 min 0 min 0,0 UV-I 107 W/m 2,6 km/h (1 Bft)
01.07.2013 10:30 16,4 C 15,7 C 89 % 1017,6 hPa 0,0 l/m 0 min 0 min 0,0 UV-I 100 W/m 0,0 km/h (0 Bft)
01.07.2013 10:32 16,4 C 15,7 C 89 % 1017,6 hPa 0,0 l/m 0 min 0 min 0,0 UV-I 100 W/m 0,0 km/h (0 Bft)
01.07.2013 10:34 16,4 C 15,7 C 89 % 1017,6 hPa 0,0 l/m 0 min 0 min 0,0 UV-I 100 W/m 0,0 km/h (0 Bft)
01.07.2013 10:36 16,4 C 15,7 C 89 % 1017,5 hPa 0,0 l/m 0 min 0 min 0,0 UV-I 113 W/m 10,3 km/h (2 Bft)
01.07.2013 10:38 16,4 C 15,7 C 89 % 1017,5 hPa 0,0 l/m 0 min 0 min 0,0 UV-I 121 W/m 2,6 km/h (1 Bft)
01.07.2013 10:40 16,4 C 15,7 C 89 % 1017,5 hPa 0,0 l/m 0 min 0 min 0,0 UV-I 130 W/m 0,0 km/h (0 Bft)
01.07.2013 10:42 16,4 C 15,7 C 89 % 1017,6 hPa 0,0 l/m 0 min 0 min 0,0 UV-I 121 W/m 2,6 km/h (1 Bft)
01.07.2013 10:44 16,4 C 15,7 C 89 % 1017,5 hPa 0,0 l/m 0 min 0 min 0,0 UV-I 118 W/m 10,3 km/h (2 Bft)
01.07.2013 10:46 16,4 C 15,7 C 89 % 1017,5 hPa 0,0 l/m 0 min 0 min 0,0 UV-I 123 W/m 10,3 km/h (2 Bft)
01.07.2013 10:48 16,4 C 15,7 C 89 % 1017,5 hPa 0,0 l/m 0 min 0 min 0,0 UV-I 114 W/m 0,0 km/h (0 Bft)
01.07.2013 10:50 16,4 C 15,7 C 89 % 1017,5 hPa 0,0 l/m 0 min 0 min 0,0 UV-I 114 W/m 2,6 km/h (1 Bft)
01.07.2013 10:52 16,4 C 15,7 C 89 % 1017,6 hPa 0,0 l/m 0 min 0 min 0,0 UV-I 123 W/m 0,0 km/h (0 Bft)
01.07.2013 10:54 16,4 C 15,7 C 89 % 1017,5 hPa 0,0 l/m 0 min 0 min 0,0 UV-I 116 W/m 0,0 km/h (0 Bft)
01.07.2013 10:56 16,4 C 15,7 C 89 % 1017,5 hPa 0,0 l/m 0 min 0 min 0,0 UV-I 111 W/m 7,7 km/h (2 Bft)
01.07.2013 10:58 16,4 C 15,7 C 89 % 1017,5 hPa 0,0 l/m 0 min 0 min 0,0 UV-I 132 W/m 5,1 km/h (1 Bft)
01.07.2013 11:00 16,4 C 15,7 C 89 % 1017,6 hPa 0,0 l/m 0 min 0 min 0,0 UV-I 149 W/m 10,3 km/h (2 Bft)
01.07.2013 11:02 16,3 C 15,7 C 89 % 1017,5 hPa 0,0 l/m 0 min 0 min 0,5 UV-I 162 W/m 7,7 km/h (2 Bft)
01.07.2013 11:06 16,4 C 16,2 C 89 % 1017,6 hPa 0,0 l/m 0 min 0 min 0,5 UV-I 162 W/m 7,7 km/h (2 Bft)
01.07.2013 11:08 16,4 C 16,2 C 89 % 1017,6 hPa 0,0 l/m 0 min 0 min 0,5 UV-I 160 W/m 0,0 km/h (0 Bft)
01.07.2013 11:10 16,4 C 16,2 C 89 % 1017,5 hPa 0,0 l/m 0 min 0 min 0,0 UV-I 149 W/m 0,0 km/h (0 Bft)
01.07.2013 11:12 16,4 C 16,2 C 89 % 1017,6 hPa 0,0 l/m 0 min 0 min 0,0 UV-I 146 W/m 7,7 km/h (2 Bft)
01.07.2013 11:14 16,4 C 16,2 C 89 % 1017,5 hPa 0,0 l/m 0 min 0 min 0,0 UV-I 137 W/m 0,0 km/h (0 Bft)
01.07.2013 11:16 16,4 C 15,7 C 89 % 1017,6 hPa 0,0 l/m 0 min 0 min 0,0 UV-I 134 W/m 15,4 km/h (3 Bft)
01.07.2013 11:18 16,4 C 15,7 C 88 % 1017,6 hPa 0,0 l/m 0 min 0 min 0,0 UV-I 135 W/m 0,0 km/h (0 Bft)
01.07.2013 11:20 16,4 C 15,7 C 88 % 1017,6 hPa 0,0 l/m 0 min 0 min 0,0 UV-I 132 W/m 7,7 km/h (2 Bft)
01.07.2013 11:22 16,4 C 15,7 C 88 % 1017,6 hPa 0,0 l/m 0 min 0 min 0,0 UV-I 130 W/m 7,7 km/h (2 Bft)
01.07.2013 11:24 16,4 C 15,7 C 88 % 1017,6 hPa 0,0 l/m 0 min 0 min 0,0 UV-I 137 W/m 7,7 km/h (2 Bft)
01.07.2013 11:26 16,4 C 15,7 C 88 % 1017,6 hPa 0,0 l/m 0 min 0 min 0,0 UV-I 127 W/m 15,4 km/h (3 Bft)
01.07.2013 11:28 16,3 C 15,7 C 88 % 1017,6 hPa 0,0 l/m 0 min 0 min 0,0 UV-I 120 W/m 7,7 km/h (2 Bft)
01.07.2013 11:30 16,3 C 15,7 C 88 % 1017,6 hPa 0,0 l/m 0 min 0 min 0,0 UV-I 121 W/m 7,7 km/h (2 Bft)
01.07.2013 11:32 16,3 C 15,7 C 88 % 1017,6 hPa 0,0 l/m 0 min 0 min 0,0 UV-I 120 W/m 10,3 km/h (2 Bft)
01.07.2013 11:34 16,3 C 15,7 C 88 % 1017,5 hPa 0,0 l/m 0 min 0 min 0,0 UV-I 127 W/m 5,1 km/h (1 Bft)
01.07.2013 11:36 16,3 C 15,7 C 88 % 1017,5 hPa 0,0 l/m 0 min 0 min 0,0 UV-I 132 W/m 5,1 km/h (1 Bft)
01.07.2013 11:38 16,3 C 15,7 C 89 % 1017,5 hPa 0,0 l/m 0 min 0 min 0,0 UV-I 130 W/m 10,3 km/h (2 Bft)
01.07.2013 11:40 16,3 C 15,7 C 89 % 1017,6 hPa 0,0 l/m 0 min 0 min 0,0 UV-I 128 W/m 2,6 km/h (1 Bft)
01.07.2013 11:42 16,3 C 15,7 C 89 % 1017,5 hPa 0,0 l/m 0 min 0 min 0,0 UV-I 132 W/m 2,6 km/h (1 Bft)
01.07.2013 11:44 16,3 C 15,7 C 89 % 1017,6 hPa 0,0 l/m 0 min 0 min 0,0 UV-I 127 W/m 2,6 km/h (1 Bft)
01.07.2013 11:46 16,3 C 15,7 C 89 % 1017,5 hPa 0,0 l/m 0 min 0 min 0,0 UV-I 141 W/m 0,0 km/h (0 Bft)
01.07.2013 11:48 16,3 C 15,7 C 89 % 1017,6 hPa 0,0 l/m 0 min 0 min 0,0 UV-I 141 W/m 10,3 km/h (2 Bft)
01.07.2013 11:50 16,3 C 15,7 C 89 % 1017,6 hPa 0,0 l/m 0 min 0 min 0,6 UV-I 163 W/m 2,6 km/h (1 Bft)
01.07.2013 11:52 16,3 C 16,2 C 89 % 1017,6 hPa 0,0 l/m 0 min 0 min 0,5 UV-I 148 W/m 2,6 km/h (1 Bft)
01.07.2013 11:54 16,3 C 16,2 C 89 % 1017,7 hPa 0,0 l/m 0 min 0 min 0,6 UV-I 156 W/m 2,6 km/h (1 Bft)
01.07.2013 11:56 16,3 C 16,2 C 89 % 1017,6 hPa 0,0 l/m 0 min 0 min 0,5 UV-I 149 W/m 12,9 km/h (3 Bft)
01.07.2013 11:58 16,3 C 16,2 C 89 % 1017,6 hPa 0,0 l/m 0 min 0 min 0,0 UV-I 142 W/m 10,3 km/h (2 Bft)
01.07.2013 12:00 16,3 C 16,2 C 89 % 1017,6 hPa 0,0 l/m 0 min 0 min 0,5 UV-I 156 W/m 7,7 km/h (2 Bft)
01.07.2013 12:02 16,3 C 16,2 C 89 % 1017,6 hPa 0,0 l/m 0 min 0 min 0,6 UV-I 163 W/m 5,1 km/h (1 Bft)
01.07.2013 12:06 16,4 C 16,2 C 89 % 1017,5 hPa 0,0 l/m 0 min 0 min 1,3 UV-I 260 W/m 5,1 km/h (1 Bft)
01.07.2013 12:08 16,4 C 16,8 C 90 % 1017,6 hPa 0,0 l/m 0 min 0 min 1,4 UV-I 271 W/m 2,6 km/h (1 Bft)
01.07.2013 12:10 16,4 C 16,8 C 90 % 1017,6 hPa 0,0 l/m 0 min 0 min 2,1 UV-I 369 W/m 10,3 km/h (2 Bft)
01.07.2013 12:12 16,6 C 17,9 C 90 % 1017,6 hPa 0,0 l/m 0 min 0 min 2,3 UV-I 413 W/m 0,0 km/h (0 Bft)
01.07.2013 12:14 16,8 C 17,9 C 90 % 1017,6 hPa 0,0 l/m 0 min 0 min 1,9 UV-I 385 W/m 2,6 km/h (1 Bft)
01.07.2013 12:16 16,8 C 17,9 C 89 % 1017,6 hPa 0,0 l/m 0 min 0 min 0,9 UV-I 204 W/m 10,3 km/h (2 Bft)
01.07.2013 12:18 16,8 C 17,9 C 88 % 1017,6 hPa 0,0 l/m 0 min 0 min 1,2 UV-I 248 W/m 15,4 km/h (3 Bft)
01.07.2013 12:20 16,8 C 17,3 C 88 % 1017,6 hPa 0,0 l/m 0 min 0 min 1,0 UV-I 223 W/m 7,7 km/h (2 Bft)
01.07.2013 12:22 16,8 C 17,9 C 88 % 1017,6 hPa 0,0 l/m 0 min 0 min 2,1 UV-I 345 W/m 0,0 km/h (0 Bft)
01.07.2013 12:24 16,9 C 18,4 C 89 % 1017,6 hPa 0,0 l/m 0 min 0 min 3,5 UV-I 345 W/m 7,7 km/h (2 Bft)
01.07.2013 12:26 17,1 C 19,6 C 89 % 1017,6 hPa 0,0 l/m 2 min 0 min 3,2 UV-I 547 W/m 2,6 km/h (1 Bft)
01.07.2013 12:28 17,3 C 20,7 C 89 % 1017,7 hPa 0,0 l/m 2 min 0 min 5,5 UV-I 547 W/m 7,7 km/h (2 Bft)
01.07.2013 12:30 17,6 C 21,8 C 89 % 1017,6 hPa 0,0 l/m 2 min 0 min 4,6 UV-I 868 W/m 2,6 km/h (1 Bft)
01.07.2013 12:32 17,7 C 20,7 C 87 % 1017,6 hPa 0,0 l/m 0 min 0 min 2,7 UV-I 432 W/m 5,1 km/h (1 Bft)
01.07.2013 12:34 17,8 C 20,7 C 87 % 1017,7 hPa 0,0 l/m 2 min 0 min 4,0 UV-I 526 W/m 12,9 km/h (3 Bft)
01.07.2013 12:36 17,9 C 22,3 C 87 % 1017,6 hPa 0,0 l/m 2 min 0 min 5,4 UV-I 526 W/m 10,3 km/h (2 Bft)
01.07.2013 12:38 18,3 C 22,9 C 87 % 1017,7 hPa 0,0 l/m 2 min 0 min 4,5 UV-I 526 W/m 0,0 km/h (0 Bft)
01.07.2013 12:42 18,5 C 22,3 C 85 % 1017,6 hPa 0,0 l/m 2 min 0 min 3,5 UV-I 497 W/m 7,7 km/h (2 Bft)
01.07.2013 12:46 18,2 C 22,3 C 85 % 1017,6 hPa 0,0 l/m 2 min 0 min 3,6 UV-I 606 W/m 12,9 km/h (3 Bft)
01.07.2013 12:49 18,6 C 22,9 C 86 % 1017,6 hPa 0,0 l/m 2 min 0 min 5,7 UV-I 946 W/m 0,0 km/h (0 Bft)
01.07.2013 12:50 18,6 C 22,9 C 86 % 1017,6 hPa 0,0 l/m 1 min 0 min 5,7 UV-I 946 W/m 0,0 km/h (0 Bft)
01.07.2013 12:51 18,7 C 22,9 C 85 % 1017,5 hPa 0,0 l/m 0 min 0 min 5,9 UV-I 424 W/m 0,0 km/h (0 Bft)
01.07.2013 12:52 18,7 C 23,4 C 83 % 1017,5 hPa 0,0 l/m 0 min 0 min 5,0 UV-I 424 W/m 2,6 km/h (1 Bft)
01.07.2013 12:53 18,7 C 22,9 C 82 % 1017,5 hPa 0,0 l/m 1 min 0 min 3,8 UV-I 640 W/m 10,3 km/h (2 Bft)
01.07.2013 12:58 18,9 C 23,4 C 83 % 1017,3 hPa 0,0 l/m 2 min 0 min 3,4 UV-I 640 W/m 10,3 km/h (2 Bft)
01.07.2013 13:00 18,9 C 22,3 C 80 % 1017,4 hPa 0,0 l/m 0 min 0 min 3,7 UV-I 443 W/m 12,9 km/h (3 Bft)
01.07.2013 13:02 18,8 C 22,3 C 81 % 1017,5 hPa 0,0 l/m 2 min 0 min 3,8 UV-I 652 W/m 12,9 km/h (3 Bft)
01.07.2013 13:06 19,1 C 25,1 C 81 % 1017,4 hPa 0,0 l/m 2 min 0 min 3,9 UV-I 997 W/m 10,3 km/h (2 Bft)
01.07.2013 13:08 19,1 C 24,6 C 80 % 1017,4 hPa 0,0 l/m 2 min 0 min 3,7 UV-I 997 W/m 15,4 km/h (3 Bft)
01.07.2013 13:10 19,2 C 24,6 C 81 % 1017,4 hPa 0,0 l/m 2 min 0 min 3,2 UV-I 691 W/m 7,7 km/h (2 Bft)
01.07.2013 13:12 19,4 C 24,6 C 82 % 1017,4 hPa 0,0 l/m 2 min 0 min 3,3 UV-I 691 W/m 12,9 km/h (3 Bft)
01.07.2013 13:14 19,8 C 24,6 C 83 % 1017,3 hPa 0,0 l/m 2 min 0 min 3,4 UV-I 691 W/m 0,0 km/h (0 Bft)
01.07.2013 13:16 19,7 C 24,0 C 79 % 1017,3 hPa 0,0 l/m 0 min 0 min 3,3 UV-I 443 W/m 12,9 km/h (3 Bft)
01.07.2013 13:18 19,7 C 25,1 C 79 % 1017,3 hPa 0,0 l/m 2 min 0 min 3,4 UV-I 1090 W/m 2,6 km/h (1 Bft)
01.07.2013 13:20 19,7 C 22,9 C 80 % 1017,3 hPa 0,0 l/m 0 min 0 min 2,9 UV-I 462 W/m 18,0 km/h (3 Bft)
01.07.2013 13:22 19,3 C 22,3 C 78 % 1017,4 hPa 0,0 l/m 2 min 0 min 3,4 UV-I 533 W/m 23,2 km/h (4 Bft)
01.07.2013 13:24 19,5 C 22,3 C 80 % 1017,4 hPa 0,0 l/m 2 min 0 min 3,1 UV-I 533 W/m 7,7 km/h (2 Bft)
01.07.2013 13:26 19,4 C 22,3 C 80 % 1017,4 hPa 0,0 l/m 0 min 0 min 3,1 UV-I 436 W/m 10,3 km/h (2 Bft)
01.07.2013 13:28 19,3 C 21,8 C 78 % 1017,4 hPa 0,0 l/m 2 min 0 min 2,9 UV-I 606 W/m 2,6 km/h (1 Bft)
01.07.2013 13:30 19,2 C 21,8 C 80 % 1017,3 hPa 0,0 l/m 2 min 0 min 3,0 UV-I 482 W/m 7,7 km/h (2 Bft)
01.07.2013 13:32 19,3 C 21,8 C 81 % 1017,3 hPa 0,0 l/m 2 min 0 min 3,1 UV-I 482 W/m 10,3 km/h (2 Bft)
01.07.2013 13:34 19,5 C 22,9 C 81 % 1017,2 hPa 0,0 l/m 0 min 0 min 3,3 UV-I 448 W/m 12,9 km/h (3 Bft)
01.07.2013 13:38 19,9 C 25,1 C 80 % 1017,2 hPa 0,0 l/m 2 min 0 min 3,2 UV-I 962 W/m 15,4 km/h (3 Bft)
01.07.2013 13:40 20,3 C 26,2 C 80 % 1017,2 hPa 0,0 l/m 2 min 0 min 3,1 UV-I 940 W/m 5,1 km/h (1 Bft)
01.07.2013 13:44 20,8 C 26,2 C 76 % 1017,2 hPa 0,0 l/m 2 min 0 min 3,1 UV-I 937 W/m 12,9 km/h (3 Bft)
01.07.2013 13:46 20,7 C 25,1 C 77 % 1017,2 hPa 0,0 l/m 2 min 0 min 3,2 UV-I 856 W/m 5,1 km/h (1 Bft)
01.07.2013 13:48 20,5 C 24,0 C 78 % 1017,1 hPa 0,0 l/m 2 min 0 min 3,5 UV-I 870 W/m 10,3 km/h (2 Bft)
01.07.2013 13:50 20,4 C 22,9 C 76 % 1017,0 hPa 0,0 l/m 2 min 0 min 3,9 UV-I 715 W/m 15,4 km/h (3 Bft)
01.07.2013 13:52 20,5 C 22,9 C 78 % 1017,0 hPa 0,0 l/m 2 min 0 min 4,4 UV-I 949 W/m 20,6 km/h (4 Bft)
01.07.2013 13:54 20,6 C 22,9 C 75 % 1017,2 hPa 0,0 l/m 2 min 0 min 3,2 UV-I 949 W/m 10,3 km/h (2 Bft)
01.07.2013 13:56 20,7 C 22,9 C 76 % 1017,1 hPa 0,0 l/m 2 min 0 min 5,2 UV-I 877 W/m 10,3 km/h (2 Bft)
01.07.2013 13:58 20,7 C 22,9 C 77 % 1017,0 hPa 0,0 l/m 2 min 0 min 5,4 UV-I 858 W/m 10,3 km/h (2 Bft)
01.07.2013 14:00 20,8 C 22,9 C 76 % 1017,0 hPa 0,0 l/m 2 min 0 min 5,6 UV-I 879 W/m 5,1 km/h (1 Bft)
01.07.2013 14:02 20,8 C 22,9 C 73 % 1016,9 hPa 0,0 l/m 2 min 0 min 5,5 UV-I 891 W/m 7,7 km/h (2 Bft)
01.07.2013 14:06 20,9 C 22,9 C 74 % 1016,9 hPa 0,0 l/m 2 min 0 min 5,3 UV-I 905 W/m 18,0 km/h (3 Bft)
01.07.2013 14:08 20,9 C 22,9 C 75 % 1016,9 hPa 0,0 l/m 0 min 0 min 5,6 UV-I 339 W/m 12,9 km/h (3 Bft)
01.07.2013 14:10 20,9 C 22,9 C 76 % 1016,9 hPa 0,0 l/m 2 min 0 min 5,6 UV-I 928 W/m 15,4 km/h (3 Bft)
01.07.2013 14:12 21,1 C 22,9 C 75 % 1016,8 hPa 0,0 l/m 2 min 0 min 5,5 UV-I 893 W/m 12,9 km/h (3 Bft)
01.07.2013 14:14 21,1 C 22,9 C 75 % 1016,8 hPa 0,0 l/m 2 min 0 min 5,4 UV-I 868 W/m 10,3 km/h (2 Bft)
01.07.2013 14:16 21,1 C 22,9 C 75 % 1016,8 hPa 0,0 l/m 2 min 0 min 5,4 UV-I 851 W/m 10,3 km/h (2 Bft)
01.07.2013 14:18 21,2 C 22,9 C 73 % 1016,8 hPa 0,0 l/m 2 min 0 min 5,5 UV-I 879 W/m 20,6 km/h (4 Bft)
01.07.2013 14:20 21,3 C 22,9 C 73 % 1016,8 hPa 0,0 l/m 2 min 0 min 4,6 UV-I 738 W/m 2,6 km/h (1 Bft)
01.07.2013 14:22 21,3 C 22,3 C 73 % 1016,8 hPa 0,0 l/m 2 min 0 min 4,2 UV-I 640 W/m 7,7 km/h (2 Bft)
01.07.2013 14:24 21,1 C 22,3 C 73 % 1016,7 hPa 0,0 l/m 2 min 0 min 3,8 UV-I 640 W/m 10,3 km/h (2 Bft)
01.07.2013 14:26 20,8 C 22,3 C 74 % 1016,8 hPa 0,0 l/m 2 min 0 min 4,8 UV-I 731 W/m 5,1 km/h (1 Bft)
01.07.2013 14:28 20,9 C 22,3 C 73 % 1016,8 hPa 0,0 l/m 2 min 0 min 5,1 UV-I 831 W/m 7,7 km/h (2 Bft)
01.07.2013 14:30 20,8 C 22,3 C 74 % 1016,8 hPa 0,0 l/m 2 min 0 min 5,2 UV-I 886 W/m 12,9 km/h (3 Bft)
01.07.2013 14:32 20,9 C 22,9 C 74 % 1016,8 hPa 0,0 l/m 2 min 0 min 5,2 UV-I 884 W/m 12,9 km/h (3 Bft)
01.07.2013 14:34 21,1 C 22,9 C 76 % 1016,8 hPa 0,0 l/m 2 min 0 min 5,5 UV-I 946 W/m 15,4 km/h (3 Bft)
01.07.2013 14:36 21,3 C 23,4 C 74 % 1016,9 hPa 0,0 l/m 2 min 0 min 5,1 UV-I 860 W/m 2,6 km/h (1 Bft)
01.07.2013 14:38 21,4 C 22,9 C 72 % 1016,8 hPa 0,0 l/m 2 min 0 min 4,8 UV-I 802 W/m 12,9 km/h (3 Bft)
01.07.2013 14:40 21,6 C 23,4 C 73 % 1016,7 hPa 0,0 l/m 2 min 0 min 4,8 UV-I 714 W/m 5,1 km/h (1 Bft)
01.07.2013 14:42 21,4 C 22,9 C 71 % 1016,8 hPa 0,0 l/m 2 min 0 min 5,3 UV-I 854 W/m 18,0 km/h (3 Bft)
01.07.2013 14:44 21,2 C 22,9 C 71 % 1016,7 hPa 0,0 l/m 2 min 0 min 5,3 UV-I 870 W/m 2,6 km/h (1 Bft)
01.07.2013 14:46 21,1 C 22,3 C 72 % 1016,6 hPa 0,0 l/m 2 min 0 min 5,1 UV-I 817 W/m 12,9 km/h (3 Bft)
01.07.2013 14:48 21,3 C 22,9 C 74 % 1016,7 hPa 0,0 l/m 2 min 0 min 4,3 UV-I 791 W/m 20,6 km/h (4 Bft)
01.07.2013 14:50 21,1 C 22,3 C 72 % 1016,7 hPa 0,0 l/m 2 min 0 min 4,7 UV-I 738 W/m 15,4 km/h (3 Bft)
01.07.2013 14:52 21,1 C 22,3 C 73 % 1016,5 hPa 0,0 l/m 2 min 0 min 4,8 UV-I 821 W/m 10,3 km/h (2 Bft)
01.07.2013 14:54 21,3 C 22,9 C 72 % 1016,6 hPa 0,0 l/m 2 min 0 min 4,6 UV-I 809 W/m 12,9 km/h (3 Bft)
01.07.2013 14:56 21,3 C 22,9 C 72 % 1016,6 hPa 0,0 l/m 2 min 0 min 4,7 UV-I 779 W/m 10,3 km/h (2 Bft)
01.07.2013 14:58 21,5 C 22,9 C 71 % 1016,6 hPa 0,0 l/m 2 min 0 min 4,5 UV-I 735 W/m 15,4 km/h (3 Bft)
01.07.2013 15:00 21,6 C 22,9 C 73 % 1016,6 hPa 0,0 l/m 2 min 0 min 4,4 UV-I 737 W/m 10,3 km/h (2 Bft)
01.07.2013 15:02 21,4 C 22,9 C 70 % 1016,5 hPa 0,0 l/m 2 min 0 min 4,4 UV-I 751 W/m 18,0 km/h (3 Bft)
01.07.2013 15:06 21,7 C 23,4 C 70 % 1016,6 hPa 0,0 l/m 2 min 0 min 4,5 UV-I 756 W/m 10,3 km/h (2 Bft)
01.07.2013 15:08 21,8 C 23,4 C 71 % 1016,5 hPa 0,0 l/m 2 min 0 min 4,3 UV-I 712 W/m 12,9 km/h (3 Bft)
01.07.2013 15:10 21,8 C 23,4 C 69 % 1016,5 hPa 0,0 l/m 2 min 0 min 4,3 UV-I 721 W/m 12,9 km/h (3 Bft)
01.07.2013 15:12 21,6 C 22,9 C 71 % 1016,5 hPa 0,0 l/m 2 min 0 min 3,8 UV-I 659 W/m 5,1 km/h (1 Bft)
01.07.2013 15:14 21,7 C 22,9 C 71 % 1016,5 hPa 0,0 l/m 2 min 0 min 3,3 UV-I 522 W/m 10,3 km/h (2 Bft)
01.07.2013 15:16 21,7 C 22,9 C 71 % 1016,5 hPa 0,0 l/m 2 min 0 min 3,6 UV-I 613 W/m 12,9 km/h (3 Bft)
01.07.2013 15:18 21,7 C 22,9 C 71 % 1016,5 hPa 0,0 l/m 2 min 0 min 3,6 UV-I 589 W/m 0,0 km/h (0 Bft)
01.07.2013 15:20 21,4 C 22,9 C 70 % 1016,5 hPa 0,0 l/m 2 min 0 min 3,7 UV-I 615 W/m 5,1 km/h (1 Bft)
01.07.2013 15:22 21,3 C 22,9 C 72 % 1016,4 hPa 0,0 l/m 2 min 0 min 3,7 UV-I 638 W/m 5,1 km/h (1 Bft)
01.07.2013 15:24 21,4 C 22,9 C 72 % 1016,5 hPa 0,0 l/m 2 min 0 min 4,0 UV-I 691 W/m 18,0 km/h (3 Bft)
01.07.2013 15:26 21,6 C 22,9 C 71 % 1016,5 hPa 0,0 l/m 2 min 0 min 3,9 UV-I 675 W/m 12,9 km/h (3 Bft)
01.07.2013 15:28 21,4 C 22,9 C 68 % 1016,5 hPa 0,0 l/m 2 min 0 min 3,8 UV-I 619 W/m 7,7 km/h (2 Bft)
01.07.2013 15:30 21,4 C 22,9 C 70 % 1016,4 hPa 0,0 l/m 2 min 0 min 3,4 UV-I 584 W/m 7,7 km/h (2 Bft)
01.07.2013 15:32 21,3 C 22,3 C 71 % 1016,5 hPa 0,0 l/m 2 min 0 min 3,4 UV-I 587 W/m 10,3 km/h (2 Bft)
01.07.2013 15:34 21,4 C 22,9 C 71 % 1016,4 hPa 0,0 l/m 2 min 0 min 3,4 UV-I 598 W/m 12,9 km/h (3 Bft)
01.07.2013 15:36 21,5 C 22,3 C 70 % 1016,4 hPa 0,0 l/m 2 min 0 min 3,4 UV-I 621 W/m 15,4 km/h (3 Bft)
01.07.2013 15:38 21,5 C 22,9 C 70 % 1016,4 hPa 0,0 l/m 2 min 0 min 3,5 UV-I 635 W/m 7,7 km/h (2 Bft)
01.07.2013 15:40 21,6 C 22,9 C 72 % 1016,4 hPa 0,0 l/m 2 min 0 min 3,2 UV-I 582 W/m 7,7 km/h (2 Bft)
01.07.2013 15:42 21,7 C 22,3 C 69 % 1016,4 hPa 0,0 l/m 2 min 0 min 3,0 UV-I 529 W/m 12,9 km/h (3 Bft)
01.07.2013 15:44 21,7 C 22,9 C 71 % 1016,4 hPa 0,0 l/m 2 min 0 min 3,1 UV-I 557 W/m 5,1 km/h (1 Bft)
01.07.2013 15:46 21,6 C 22,3 C 69 % 1016,4 hPa 0,0 l/m 2 min 0 min 2,8 UV-I 501 W/m 10,3 km/h (2 Bft)
01.07.2013 15:48 21,3 C 21,8 C 68 % 1016,5 hPa 0,0 l/m 0 min 0 min 2,5 UV-I 424 W/m 12,9 km/h (3 Bft)
01.07.2013 15:50 21,2 C 21,8 C 69 % 1016,4 hPa 0,0 l/m 2 min 0 min 2,5 UV-I 438 W/m 7,7 km/h (2 Bft)
01.07.2013 15:52 21,1 C 21,8 C 69 % 1016,3 hPa 0,0 l/m 2 min 0 min 2,5 UV-I 501 W/m 7,7 km/h (2 Bft)
01.07.2013 15:54 21,1 C 21,8 C 70 % 1016,3 hPa 0,0 l/m 2 min 0 min 2,7 UV-I 494 W/m 18,0 km/h (3 Bft)
01.07.2013 15:56 21,1 C 21,8 C 69 % 1016,3 hPa 0,0 l/m 2 min 0 min 2,7 UV-I 506 W/m 7,7 km/h (2 Bft)
01.07.2013 15:58 21,1 C 21,8 C 71 % 1016,3 hPa 0,0 l/m 2 min 0 min 2,7 UV-I 508 W/m 15,4 km/h (3 Bft)
01.07.2013 16:00 21,0 C 21,8 C 69 % 1016,4 hPa 0,0 l/m 2 min 0 min 2,8 UV-I 515 W/m 15,4 km/h (3 Bft)
01.07.2013 16:02 20,8 C 21,2 C 70 % 1016,3 hPa 0,0 l/m 2 min 0 min 2,7 UV-I 515 W/m 12,9 km/h (3 Bft)
01.07.2013 16:06 20,8 C 21,8 C 70 % 1016,3 hPa 0,0 l/m 2 min 0 min 2,8 UV-I 545 W/m 15,4 km/h (3 Bft)
01.07.2013 16:08 20,7 C 21,2 C 71 % 1016,3 hPa 0,0 l/m 2 min 0 min 2,7 UV-I 538 W/m 18,0 km/h (3 Bft)
01.07.2013 16:10 20,7 C 21,2 C 72 % 1016,3 hPa 0,0 l/m 2 min 0 min 2,7 UV-I 548 W/m 15,4 km/h (3 Bft)
01.07.2013 16:12 20,9 C 21,8 C 73 % 1016,3 hPa 0,0 l/m 2 min 0 min 2,7 UV-I 552 W/m 12,9 km/h (3 Bft)
01.07.2013 16:14 20,8 C 21,8 C 71 % 1016,3 hPa 0,0 l/m 2 min 0 min 2,6 UV-I 534 W/m 10,3 km/h (2 Bft)
01.07.2013 16:16 20,8 C 21,2 C 70 % 1016,3 hPa 0,0 l/m 2 min 0 min 2,5 UV-I 501 W/m 20,6 km/h (4 Bft)
01.07.2013 16:18 20,7 C 21,2 C 71 % 1016,2 hPa 0,0 l/m 2 min 0 min 2,4 UV-I 496 W/m 10,3 km/h (2 Bft)
01.07.2013 16:20 20,8 C 21,2 C 72 % 1016,2 hPa 0,0 l/m 2 min 0 min 2,4 UV-I 499 W/m 28,3 km/h (4 Bft)
01.07.2013 16:22 21,0 C 21,8 C 71 % 1016,3 hPa 0,0 l/m 2 min 0 min 2,5 UV-I 520 W/m 2,6 km/h (1 Bft)
01.07.2013 16:24 20,9 C 21,2 C 71 % 1016,3 hPa 0,0 l/m 2 min 0 min 2,5 UV-I 522 W/m 15,4 km/h (3 Bft)
01.07.2013 16:26 20,9 C 21,8 C 71 % 1016,2 hPa 0,0 l/m 2 min 0 min 2,4 UV-I 513 W/m 0,0 km/h (0 Bft)
01.07.2013 16:28 21,1 C 21,8 C 72 % 1016,3 hPa 0,0 l/m 2 min 0 min 2,1 UV-I 482 W/m 7,7 km/h (2 Bft)
01.07.2013 16:30 21,2 C 21,8 C 70 % 1016,2 hPa 0,0 l/m 0 min 0 min 1,9 UV-I 346 W/m 5,1 km/h (1 Bft)
01.07.2013 16:32 21,0 C 21,8 C 69 % 1016,2 hPa 0,0 l/m 2 min 0 min 2,1 UV-I 429 W/m 10,3 km/h (2 Bft)
01.07.2013 16:34 21,0 C 21,8 C 70 % 1016,2 hPa 0,0 l/m 2 min 0 min 2,0 UV-I 418 W/m 2,6 km/h (1 Bft)
01.07.2013 16:36 21,0 C 21,2 C 71 % 1016,2 hPa 0,0 l/m 0 min 0 min 1,8 UV-I 357 W/m 25,7 km/h (4 Bft)
01.07.2013 16:38 21,0 C 21,2 C 71 % 1016,3 hPa 0,0 l/m 2 min 0 min 1,9 UV-I 410 W/m 12,9 km/h (3 Bft)
01.07.2013 16:40 20,9 C 21,2 C 70 % 1016,3 hPa 0,0 l/m 2 min 0 min 1,9 UV-I 410 W/m 15,4 km/h (3 Bft)
01.07.2013 16:42 21,1 C 21,2 C 72 % 1016,3 hPa 0,0 l/m 2 min 0 min 2,0 UV-I 438 W/m 7,7 km/h (2 Bft)
01.07.2013 16:44 21,2 C 21,8 C 71 % 1016,2 hPa 0,0 l/m 2 min 0 min 2,0 UV-I 469 W/m 10,3 km/h (2 Bft)
01.07.2013 16:46 21,2 C 21,8 C 70 % 1016,2 hPa 0,0 l/m 2 min 0 min 1,9 UV-I 445 W/m 2,6 km/h (1 Bft)
01.07.2013 16:48 21,0 C 21,8 C 70 % 1016,2 hPa 0,0 l/m 2 min 0 min 1,8 UV-I 408 W/m 10,3 km/h (2 Bft)
01.07.2013 16:50 21,1 C 21,8 C 71 % 1016,3 hPa 0,0 l/m 2 min 0 min 1,8 UV-I 388 W/m 5,1 km/h (1 Bft)
01.07.2013 16:52 21,1 C 21,8 C 71 % 1016,3 hPa 0,0 l/m 2 min 0 min 1,7 UV-I 390 W/m 5,1 km/h (1 Bft)
01.07.2013 16:54 21,1 C 21,2 C 70 % 1016,2 hPa 0,0 l/m 2 min 0 min 1,7 UV-I 381 W/m 18,0 km/h (3 Bft)
01.07.2013 16:56 20,9 C 21,2 C 70 % 1016,2 hPa 0,0 l/m 0 min 0 min 1,6 UV-I 366 W/m 15,4 km/h (3 Bft)
01.07.2013 16:58 20,9 C 21,2 C 71 % 1016,2 hPa 0,0 l/m 2 min 0 min 1,5 UV-I 369 W/m 0,0 km/h (0 Bft)
01.07.2013 17:00 20,8 C 21,2 C 70 % 1016,2 hPa 0,0 l/m 2 min 0 min 1,5 UV-I 373 W/m 10,3 km/h (2 Bft)
01.07.2013 17:02 20,7 C 21,2 C 70 % 1016,2 hPa 0,0 l/m 2 min 0 min 1,5 UV-I 362 W/m 10,3 km/h (2 Bft)
01.07.2013 17:06 20,8 C 21,2 C 71 % 1016,2 hPa 0,0 l/m 2 min 0 min 1,4 UV-I 360 W/m 12,9 km/h (3 Bft)
01.07.2013 17:08 20,8 C 21,2 C 70 % 1016,2 hPa 0,0 l/m 0 min 0 min 1,4 UV-I 338 W/m 15,4 km/h (3 Bft)
01.07.2013 17:10 20,8 C 21,2 C 71 % 1016,2 hPa 0,0 l/m 0 min 0 min 1,3 UV-I 345 W/m 0,0 km/h (0 Bft)
01.07.2013 17:12 20,8 C 21,2 C 70 % 1016,1 hPa 0,0 l/m 0 min 0 min 1,3 UV-I 336 W/m 15,4 km/h (3 Bft)
01.07.2013 17:14 20,7 C 21,2 C 70 % 1016,1 hPa 0,0 l/m 2 min 0 min 1,3 UV-I 357 W/m 15,4 km/h (3 Bft)
01.07.2013 17:16 20,6 C 21,2 C 70 % 1016,2 hPa 0,0 l/m 0 min 0 min 1,2 UV-I 336 W/m 12,9 km/h (3 Bft)
01.07.2013 17:18 20,6 C 20,7 C 70 % 1016,1 hPa 0,0 l/m 0 min 0 min 1,1 UV-I 315 W/m 7,7 km/h (2 Bft)
01.07.2013 17:20 20,6 C 20,7 C 71 % 1016,1 hPa 0,0 l/m 0 min 0 min 1,1 UV-I 297 W/m 7,7 km/h (2 Bft)
01.07.2013 17:22 20,6 C 20,7 C 70 % 1016,1 hPa 0,0 l/m 0 min 0 min 1,0 UV-I 288 W/m 15,4 km/h (3 Bft)
01.07.2013 17:24 20,4 C 20,7 C 71 % 1016,1 hPa 0,0 l/m 0 min 0 min 1,0 UV-I 297 W/m 10,3 km/h (2 Bft)
01.07.2013 17:26 20,5 C 20,7 C 71 % 1016,1 hPa 0,0 l/m 0 min 0 min 0,9 UV-I 288 W/m 7,7 km/h (2 Bft)
01.07.2013 17:28 20,6 C 20,7 C 71 % 1016,1 hPa 0,0 l/m 0 min 0 min 0,9 UV-I 274 W/m 10,3 km/h (2 Bft)
01.07.2013 17:30 20,6 C 20,7 C 71 % 1016,0 hPa 0,0 l/m 0 min 0 min 0,9 UV-I 294 W/m 10,3 km/h (2 Bft)
01.07.2013 17:32 20,6 C 20,7 C 70 % 1016,0 hPa 0,0 l/m 0 min 0 min 0,9 UV-I 290 W/m 12,9 km/h (3 Bft)
01.07.2013 17:34 20,5 C 20,7 C 70 % 1016,0 hPa 0,0 l/m 0 min 0 min 0,9 UV-I 292 W/m 10,3 km/h (2 Bft)
01.07.2013 17:36 20,4 C 20,1 C 70 % 1016,0 hPa 0,0 l/m 0 min 0 min 0,8 UV-I 288 W/m 7,7 km/h (2 Bft)
01.07.2013 17:38 20,5 C 20,7 C 72 % 1015,9 hPa 0,0 l/m 0 min 0 min 0,8 UV-I 283 W/m 7,7 km/h (2 Bft)
01.07.2013 17:40 20,5 C 20,7 C 71 % 1015,9 hPa 0,0 l/m 0 min 0 min 0,8 UV-I 279 W/m 10,3 km/h (2 Bft)
01.07.2013 17:42 20,6 C 20,7 C 71 % 1015,8 hPa 0,0 l/m 0 min 0 min 0,8 UV-I 285 W/m 0,0 km/h (0 Bft)
01.07.2013 17:44 20,5 C 20,7 C 70 % 1015,8 hPa 0,0 l/m 0 min 0 min 0,8 UV-I 294 W/m 10,3 km/h (2 Bft)
01.07.2013 17:46 20,4 C 20,7 C 72 % 1015,9 hPa 0,0 l/m 0 min 0 min 0,8 UV-I 295 W/m 7,7 km/h (2 Bft)
01.07.2013 17:48 20,6 C 20,7 C 72 % 1015,7 hPa 0,0 l/m 2 min 0 min 0,8 UV-I 309 W/m 5,1 km/h (1 Bft)
01.07.2013 17:50 20,6 C 20,7 C 71 % 1015,7 hPa 0,0 l/m 2 min 0 min 0,9 UV-I 327 W/m 10,3 km/h (2 Bft)
01.07.2013 17:52 20,6 C 20,7 C 70 % 1015,8 hPa 0,0 l/m 2 min 0 min 0,9 UV-I 350 W/m 10,3 km/h (2 Bft)
01.07.2013 17:54 20,6 C 20,7 C 70 % 1015,8 hPa 0,0 l/m 2 min 0 min 0,9 UV-I 350 W/m 0,0 km/h (0 Bft)
01.07.2013 17:56 20,7 C 20,7 C 72 % 1015,8 hPa 0,0 l/m 2 min 0 min 0,8 UV-I 339 W/m 2,6 km/h (1 Bft)
01.07.2013 17:58 20,7 C 20,7 C 71 % 1015,7 hPa 0,0 l/m 0 min 0 min 0,7 UV-I 295 W/m 2,6 km/h (1 Bft)
01.07.2013 18:00 20,7 C 20,7 C 72 % 1015,8 hPa 0,0 l/m 0 min 0 min 0,7 UV-I 278 W/m 0,0 km/h (0 Bft)
01.07.2013 18:02 20,6 C 20,7 C 71 % 1015,7 hPa 0,0 l/m 0 min 0 min 0,7 UV-I 283 W/m 10,3 km/h (2 Bft)
01.07.2013 18:06 20,3 C 20,1 C 73 % 1015,7 hPa 0,0 l/m 0 min 0 min 0,6 UV-I 243 W/m 15,4 km/h (3 Bft)
01.07.2013 18:08 20,3 C 20,1 C 71 % 1015,6 hPa 0,0 l/m 0 min 0 min 0,5 UV-I 237 W/m 12,9 km/h (3 Bft)
01.07.2013 18:10 20,3 C 20,1 C 71 % 1015,7 hPa 0,0 l/m 0 min 0 min 0,5 UV-I 223 W/m 12,9 km/h (3 Bft)
01.07.2013 18:12 20,3 C 20,1 C 73 % 1015,6 hPa 0,0 l/m 0 min 0 min 0,0 UV-I 216 W/m 2,6 km/h (1 Bft)
01.07.2013 18:14 20,3 C 20,1 C 73 % 1015,6 hPa 0,0 l/m 0 min 0 min 0,0 UV-I 216 W/m 2,6 km/h (1 Bft)
01.07.2013 18:16 20,4 C 20,1 C 73 % 1015,6 hPa 0,0 l/m 0 min 0 min 0,0 UV-I 221 W/m 2,6 km/h (1 Bft)
01.07.2013 18:18 20,3 C 20,1 C 72 % 1015,6 hPa 0,0 l/m 0 min 0 min 0,0 UV-I 232 W/m 2,6 km/h (1 Bft)
01.07.2013 18:20 20,3 C 20,1 C 72 % 1015,6 hPa 0,0 l/m 0 min 0 min 0,0 UV-I 236 W/m 2,6 km/h (1 Bft)
01.07.2013 18:22 20,3 C 20,1 C 72 % 1015,5 hPa 0,0 l/m 0 min 0 min 0,0 UV-I 229 W/m 2,6 km/h (1 Bft)
01.07.2013 18:24 20,3 C 20,1 C 72 % 1015,6 hPa 0,0 l/m 0 min 0 min 0,0 UV-I 220 W/m 2,6 km/h (1 Bft)
01.07.2013 18:26 20,3 C 20,1 C 73 % 1015,5 hPa 0,0 l/m 0 min 0 min 0,0 UV-I 216 W/m 7,7 km/h (2 Bft)
01.07.2013 18:28 20,3 C 20,1 C 75 % 1015,5 hPa 0,0 l/m 0 min 0 min 0,0 UV-I 223 W/m 5,1 km/h (1 Bft)
01.07.2013 18:30 20,3 C 20,1 C 72 % 1015,4 hPa 0,0 l/m 0 min 0 min 0,0 UV-I 227 W/m 7,7 km/h (2 Bft)
01.07.2013 18:32 20,2 C 20,1 C 72 % 1015,4 hPa 0,0 l/m 0 min 0 min 0,0 UV-I 221 W/m 7,7 km/h (2 Bft)
01.07.2013 18:34 20,2 C 20,1 C 73 % 1015,4 hPa 0,0 l/m 0 min 0 min 0,0 UV-I 221 W/m 2,6 km/h (1 Bft)
01.07.2013 18:36 20,2 C 20,1 C 72 % 1015,4 hPa 0,0 l/m 0 min 0 min 0,0 UV-I 207 W/m 15,4 km/h (3 Bft)
01.07.2013 18:38 20,2 C 19,6 C 72 % 1015,5 hPa 0,0 l/m 0 min 0 min 0,0 UV-I 199 W/m 18,0 km/h (3 Bft)
01.07.2013 18:40 20,1 C 19,6 C 72 % 1015,5 hPa 0,0 l/m 0 min 0 min 0,0 UV-I 192 W/m 0,0 km/h (0 Bft)
01.07.2013 18:42 20,1 C 19,6 C 72 % 1015,4 hPa 0,0 l/m 0 min 0 min 0,0 UV-I 183 W/m 12,9 km/h (3 Bft)
01.07.2013 18:44 20,1 C 19,6 C 72 % 1015,5 hPa 0,0 l/m 0 min 0 min 0,0 UV-I 183 W/m 7,7 km/h (2 Bft)
01.07.2013 18:46 20,1 C 19,6 C 72 % 1015,5 hPa 0,0 l/m 0 min 0 min 0,0 UV-I 179 W/m 10,3 km/h (2 Bft)
01.07.2013 18:48 20,1 C 19,6 C 72 % 1015,5 hPa 0,0 l/m 0 min 0 min 0,0 UV-I 186 W/m 10,3 km/h (2 Bft)
01.07.2013 18:50 20,1 C 19,6 C 71 % 1015,4 hPa 0,0 l/m 0 min 0 min 0,0 UV-I 186 W/m 10,3 km/h (2 Bft)
01.07.2013 18:52 20,1 C 20,1 C 73 % 1015,4 hPa 0,0 l/m 0 min 0 min 0,0 UV-I 179 W/m 0,0 km/h (0 Bft)
01.07.2013 18:54 20,2 C 20,1 C 74 % 1015,4 hPa 0,0 l/m 0 min 0 min 0,0 UV-I 167 W/m 0,0 km/h (0 Bft)
01.07.2013 18:56 20,2 C 19,6 C 73 % 1015,4 hPa 0,0 l/m 0 min 0 min 0,0 UV-I 181 W/m 10,3 km/h (2 Bft)
01.07.2013 18:58 20,2 C 19,6 C 72 % 1015,4 hPa 0,0 l/m 0 min 0 min 0,0 UV-I 193 W/m 10,3 km/h (2 Bft)
01.07.2013 19:00 20,1 C 19,6 C 72 % 1015,3 hPa 0,0 l/m 0 min 0 min 0,0 UV-I 192 W/m 10,3 km/h (2 Bft)
01.07.2013 19:02 20,2 C 19,6 C 73 % 1015,3 hPa 0,0 l/m 0 min 0 min 0,0 UV-I 186 W/m 0,0 km/h (0 Bft)
01.07.2013 19:06 20,2 C 19,6 C 73 % 1015,3 hPa 0,0 l/m 0 min 0 min 0,0 UV-I 174 W/m 2,6 km/h (1 Bft)
01.07.2013 19:08 20,1 C 19,6 C 72 % 1015,3 hPa 0,0 l/m 0 min 0 min 0,0 UV-I 163 W/m 12,9 km/h (3 Bft)
01.07.2013 19:10 20,1 C 19,6 C 73 % 1015,3 hPa 0,0 l/m 0 min 0 min 0,0 UV-I 156 W/m 0,0 km/h (0 Bft)
01.07.2013 19:12 20,1 C 19,6 C 73 % 1015,3 hPa 0,0 l/m 0 min 0 min 0,0 UV-I 148 W/m 0,0 km/h (0 Bft)
01.07.2013 19:14 20,1 C 19,6 C 72 % 1015,3 hPa 0,0 l/m 0 min 0 min 0,0 UV-I 142 W/m 0,0 km/h (0 Bft)
01.07.2013 19:16 20,1 C 19,6 C 72 % 1015,3 hPa 0,0 l/m 0 min 0 min 0,0 UV-I 127 W/m 0,0 km/h (0 Bft)
01.07.2013 19:18 20,0 C 19,6 C 73 % 1015,3 hPa 0,0 l/m 0 min 0 min 0,0 UV-I 109 W/m 0,0 km/h (0 Bft)
01.07.2013 19:20 20,0 C 19,6 C 72 % 1015,3 hPa 0,0 l/m 0 min 0 min 0,0 UV-I 84 W/m 0,0 km/h (0 Bft)
01.07.2013 19:22 19,9 C 19,0 C 72 % 1015,4 hPa 0,0 l/m 0 min 0 min 0,0 UV-I 58 W/m 5,1 km/h (1 Bft)
01.07.2013 19:24 19,9 C 19,0 C 72 % 1015,4 hPa 0,0 l/m 0 min 0 min 0,0 UV-I 56 W/m 0,0 km/h (0 Bft)
01.07.2013 19:26 19,8 C 19,0 C 72 % 1015,5 hPa 0,0 l/m 0 min 0 min 0,0 UV-I 56 W/m 2,6 km/h (1 Bft)
01.07.2013 19:28 19,8 C 19,0 C 73 % 1015,5 hPa 0,0 l/m 0 min 0 min 0,0 UV-I 47 W/m 2,6 km/h (1 Bft)
01.07.2013 19:30 19,8 C 18,4 C 73 % 1015,5 hPa 0,0 l/m 0 min 0 min 0,0 UV-I 42 W/m 0,0 km/h (0 Bft)
01.07.2013 19:32 19,8 C 18,4 C 73 % 1015,6 hPa 0,0 l/m 0 min 0 min 0,0 UV-I 39 W/m 10,3 km/h (2 Bft)
01.07.2013 19:34 19,8 C 18,4 C 73 % 1015,5 hPa 0,0 l/m 0 min 0 min 0,0 UV-I 47 W/m 0,0 km/h (0 Bft)
01.07.2013 19:36 19,8 C 18,4 C 73 % 1015,5 hPa 0,0 l/m 0 min 0 min 0,0 UV-I 53 W/m 0,0 km/h (0 Bft)
01.07.2013 19:38 19,8 C 18,4 C 73 % 1015,5 hPa 0,0 l/m 0 min 0 min 0,0 UV-I 46 W/m 0,0 km/h (0 Bft)
01.07.2013 19:40 19,8 C 18,4 C 73 % 1015,6 hPa 0,0 l/m 0 min 0 min 0,0 UV-I 37 W/m 7,7 km/h (2 Bft)
01.07.2013 19:42 19,8 C 18,4 C 73 % 1015,5 hPa 0,0 l/m 0 min 0 min 0,0 UV-I 39 W/m 0,0 km/h (0 Bft)
01.07.2013 19:44 19,8 C 18,4 C 73 % 1015,6 hPa 0,0 l/m 0 min 0 min 0,0 UV-I 42 W/m 2,6 km/h (1 Bft)
01.07.2013 19:46 19,8 C 18,4 C 73 % 1015,5 hPa 0,0 l/m 0 min 0 min 0,0 UV-I 44 W/m 0,0 km/h (0 Bft)
01.07.2013 19:48 19,8 C 18,4 C 73 % 1015,6 hPa 0,0 l/m 0 min 0 min 0,0 UV-I 42 W/m 0,0 km/h (0 Bft)
01.07.2013 19:50 19,8 C 18,4 C 73 % 1015,6 hPa 0,0 l/m 0 min 0 min 0,0 UV-I 53 W/m 7,7 km/h (2 Bft)
01.07.2013 19:52 19,8 C 18,4 C 73 % 1015,6 hPa 0,0 l/m 0 min 0 min 0,0 UV-I 77 W/m 7,7 km/h (2 Bft)
01.07.2013 19:54 19,8 C 18,4 C 73 % 1015,6 hPa 0,0 l/m 0 min 0 min 0,0 UV-I 81 W/m 5,1 km/h (1 Bft)
01.07.2013 19:56 19,8 C 18,4 C 72 % 1015,6 hPa 0,0 l/m 0 min 0 min 0,0 UV-I 77 W/m 10,3 km/h (2 Bft)
01.07.2013 19:58 19,8 C 18,4 C 73 % 1015,6 hPa 0,0 l/m 0 min 0 min 0,0 UV-I 72 W/m 0,0 km/h (0 Bft)
01.07.2013 20:00 19,8 C 18,4 C 73 % 1015,6 hPa 0,0 l/m 0 min 0 min 0,0 UV-I 70 W/m 0,0 km/h (0 Bft)
01.07.2013 20:02 19,8 C 18,4 C 73 % 1015,6 hPa 0,0 l/m 0 min 0 min 0,0 UV-I 72 W/m 0,0 km/h (0 Bft)
01.07.2013 20:06 19,8 C 18,4 C 74 % 1015,6 hPa 0,0 l/m 0 min 0 min 0,0 UV-I 51 W/m 0,0 km/h (0 Bft)
01.07.2013 20:08 19,8 C 18,4 C 74 % 1015,7 hPa 0,0 l/m 0 min 0 min 0,0 UV-I 49 W/m 0,0 km/h (0 Bft)
01.07.2013 20:10 19,8 C 18,4 C 74 % 1015,6 hPa 0,0 l/m 0 min 0 min 0,0 UV-I 63 W/m 0,0 km/h (0 Bft)
01.07.2013 20:12 19,8 C 18,4 C 73 % 1015,6 hPa 0,0 l/m 0 min 0 min 0,0 UV-I 86 W/m 12,9 km/h (3 Bft)
01.07.2013 20:14 19,7 C 18,4 C 73 % 1015,7 hPa 0,0 l/m 0 min 0 min 0,0 UV-I 113 W/m 5,1 km/h (1 Bft)
01.07.2013 20:16 19,7 C 18,4 C 73 % 1015,6 hPa 0,0 l/m 2 min 0 min 0,0 UV-I 118 W/m 5,1 km/h (1 Bft)
01.07.2013 20:18 19,7 C 18,4 C 73 % 1015,6 hPa 0,0 l/m 2 min 0 min 0,0 UV-I 113 W/m 0,0 km/h (0 Bft)
01.07.2013 20:20 19,8 C 18,4 C 73 % 1015,5 hPa 0,0 l/m 0 min 0 min 0,0 UV-I 105 W/m 2,6 km/h (1 Bft)
01.07.2013 20:22 19,8 C 18,4 C 72 % 1015,4 hPa 0,0 l/m 0 min 0 min 0,0 UV-I 83 W/m 2,6 km/h (1 Bft)
01.07.2013 20:24 19,7 C 18,4 C 72 % 1015,4 hPa 0,0 l/m 0 min 0 min 0,0 UV-I 67 W/m 2,6 km/h (1 Bft)
01.07.2013 20:26 19,7 C 18,4 C 72 % 1015,5 hPa 0,0 l/m 0 min 0 min 0,0 UV-I 60 W/m 2,6 km/h (1 Bft)
01.07.2013 20:28 19,7 C 17,9 C 72 % 1015,4 hPa 0,0 l/m 0 min 0 min 0,0 UV-I 53 W/m 15,4 km/h (3 Bft)
01.07.2013 20:30 19,7 C 17,9 C 72 % 1015,4 hPa 0,0 l/m 0 min 0 min 0,0 UV-I 49 W/m 2,6 km/h (1 Bft)
01.07.2013 20:32 19,7 C 17,9 C 72 % 1015,4 hPa 0,0 l/m 0 min 0 min 0,0 UV-I 53 W/m 0,0 km/h (0 Bft)
01.07.2013 20:34 19,6 C 17,9 C 72 % 1015,4 hPa 0,0 l/m 0 min 0 min 0,0 UV-I 53 W/m 5,1 km/h (1 Bft)
01.07.2013 20:36 19,6 C 17,9 C 71 % 1015,3 hPa 0,0 l/m 0 min 0 min 0,0 UV-I 47 W/m 7,7 km/h (2 Bft)
01.07.2013 20:38 19,6 C 17,9 C 71 % 1015,4 hPa 0,0 l/m 0 min 0 min 0,0 UV-I 35 W/m 15,4 km/h (3 Bft)
01.07.2013 20:40 19,6 C 17,9 C 71 % 1015,3 hPa 0,0 l/m 0 min 0 min 0,0 UV-I 32 W/m 0,0 km/h (0 Bft)
01.07.2013 20:42 19,5 C 17,9 C 72 % 1015,3 hPa 0,0 l/m 0 min 0 min 0,0 UV-I 28 W/m 0,0 km/h (0 Bft)
01.07.2013 20:44 19,5 C 17,9 C 72 % 1015,3 hPa 0,0 l/m 0 min 0 min 0,0 UV-I 26 W/m 0,0 km/h (0 Bft)
01.07.2013 20:46 19,5 C 17,9 C 72 % 1015,4 hPa 0,0 l/m 0 min 0 min 0,0 UV-I 25 W/m 0,0 km/h (0 Bft)
01.07.2013 20:48 19,4 C 17,3 C 72 % 1015,4 hPa 0,0 l/m 0 min 0 min 0,0 UV-I 23 W/m 2,6 km/h (1 Bft)
01.07.2013 20:50 19,4 C 17,3 C 71 % 1015,3 hPa 0,0 l/m 0 min 0 min 0,0 UV-I 25 W/m 0,0 km/h (0 Bft)
01.07.2013 20:52 19,4 C 17,3 C 71 % 1015,4 hPa 0,0 l/m 0 min 0 min 0,0 UV-I 26 W/m 0,0 km/h (0 Bft)
01.07.2013 20:54 19,4 C 17,3 C 72 % 1015,4 hPa 0,0 l/m 0 min 0 min 0,0 UV-I 28 W/m 0,0 km/h (0 Bft)
01.07.2013 20:56 19,3 C 17,3 C 72 % 1015,4 hPa 0,0 l/m 0 min 0 min 0,0 UV-I 30 W/m 0,0 km/h (0 Bft)
01.07.2013 20:58 19,3 C 17,3 C 72 % 1015,4 hPa 0,0 l/m 0 min 0 min 0,0 UV-I 30 W/m 0,0 km/h (0 Bft)
01.07.2013 21:00 19,3 C 17,3 C 72 % 1015,5 hPa 0,0 l/m 0 min 0 min 0,0 UV-I 28 W/m 0,0 km/h (0 Bft)
01.07.2013 21:02 19,2 C 17,3 C 72 % 1015,5 hPa 0,0 l/m 0 min 0 min 0,0 UV-I 26 W/m 0,0 km/h (0 Bft)
01.07.2013 21:06 19,2 C 17,3 C 73 % 1015,6 hPa 0,0 l/m 0 min 0 min 0,0 UV-I 23 W/m 0,0 km/h (0 Bft)
01.07.2013 21:08 19,2 C 16,8 C 73 % 1015,5 hPa 0,0 l/m 0 min 0 min 0,0 UV-I 21 W/m 0,0 km/h (0 Bft)
01.07.2013 21:10 19,1 C 16,8 C 73 % 1015,5 hPa 0,0 l/m 0 min 0 min 0,0 UV-I 21 W/m 0,0 km/h (0 Bft)
01.07.2013 21:12 19,1 C 16,8 C 74 % 1015,6 hPa 0,0 l/m 0 min 0 min 0,0 UV-I 19 W/m 0,0 km/h (0 Bft)
01.07.2013 21:14 19,1 C 16,8 C 74 % 1015,6 hPa 0,0 l/m 0 min 0 min 0,0 UV-I 21 W/m 0,0 km/h (0 Bft)
01.07.2013 21:16 19,1 C 16,8 C 74 % 1015,7 hPa 0,0 l/m 0 min 0 min 0,0 UV-I 25 W/m 0,0 km/h (0 Bft)
01.07.2013 21:18 19,0 C 16,8 C 74 % 1015,7 hPa 0,0 l/m 0 min 0 min 0,0 UV-I 30 W/m 0,0 km/h (0 Bft)
01.07.2013 21:20 19,0 C 17,3 C 74 % 1015,7 hPa 0,0 l/m 2 min 0 min 0,0 UV-I 33 W/m 0,0 km/h (0 Bft)
01.07.2013 21:22 18,9 C 17,3 C 74 % 1015,7 hPa 0,0 l/m 2 min 0 min 0,0 UV-I 35 W/m 0,0 km/h (0 Bft)
01.07.2013 21:24 18,9 C 16,8 C 75 % 1015,7 hPa 0,0 l/m 2 min 0 min 0,0 UV-I 35 W/m 0,0 km/h (0 Bft)
01.07.2013 21:26 18,9 C 16,8 C 75 % 1015,7 hPa 0,0 l/m 2 min 0 min 0,0 UV-I 30 W/m 0,0 km/h (0 Bft)
01.07.2013 21:28 18,9 C 16,8 C 75 % 1015,7 hPa 0,0 l/m 2 min 0 min 0,0 UV-I 26 W/m 0,0 km/h (0 Bft)
01.07.2013 21:30 18,9 C 16,8 C 75 % 1015,8 hPa 0,0 l/m 2 min 0 min 0,0 UV-I 23 W/m 0,0 km/h (0 Bft)
01.07.2013 21:32 18,8 C 16,8 C 75 % 1015,8 hPa 0,0 l/m 0 min 0 min 0,0 UV-I 18 W/m 0,0 km/h (0 Bft)
01.07.2013 21:34 18,8 C 16,8 C 75 % 1015,8 hPa 0,0 l/m 0 min 0 min 0,0 UV-I 16 W/m 0,0 km/h (0 Bft)
01.07.2013 21:36 18,8 C 16,2 C 75 % 1015,8 hPa 0,0 l/m 0 min 0 min 0,0 UV-I 16 W/m 0,0 km/h (0 Bft)
01.07.2013 21:38 18,8 C 16,2 C 75 % 1015,8 hPa 0,0 l/m 0 min 0 min 0,0 UV-I 14 W/m 0,0 km/h (0 Bft)
01.07.2013 21:40 18,7 C 16,2 C 75 % 1015,8 hPa 0,0 l/m 0 min 0 min 0,0 UV-I 12 W/m 0,0 km/h (0 Bft)
01.07.2013 21:42 18,7 C 16,2 C 75 % 1015,8 hPa 0,0 l/m 0 min 0 min 0,0 UV-I 12 W/m 0,0 km/h (0 Bft)
01.07.2013 21:44 18,7 C 16,2 C 75 % 1015,8 hPa 0,0 l/m 0 min 0 min 0,0 UV-I 11 W/m 0,0 km/h (0 Bft)
01.07.2013 21:46 18,7 C 16,2 C 75 % 1015,9 hPa 0,0 l/m 0 min 0 min 0,0 UV-I 11 W/m 0,0 km/h (0 Bft)
01.07.2013 21:48 18,6 C 16,2 C 75 % 1015,9 hPa 0,0 l/m 0 min 0 min 0,0 UV-I 9 W/m 0,0 km/h (0 Bft)
01.07.2013 21:50 18,6 C 15,7 C 75 % 1015,9 hPa 0,0 l/m 0 min 0 min 0,0 UV-I 7 W/m 0,0 km/h (0 Bft)
01.07.2013 21:52 18,5 C 15,7 C 75 % 1015,9 hPa 0,0 l/m 0 min 0 min 0,0 UV-I 7 W/m 0,0 km/h (0 Bft)
01.07.2013 21:54 18,5 C 15,7 C 75 % 1015,9 hPa 0,0 l/m 0 min 0 min 0,0 UV-I 5 W/m 0,0 km/h (0 Bft)
01.07.2013 21:56 18,4 C 15,7 C 75 % 1015,9 hPa 0,0 l/m 0 min 0 min 0,0 UV-I 5 W/m 0,0 km/h (0 Bft)
01.07.2013 21:58 18,4 C 15,7 C 76 % 1015,9 hPa 0,0 l/m 0 min 0 min 0,0 UV-I 5 W/m 0,0 km/h (0 Bft)
01.07.2013 22:00 18,4 C 15,7 C 76 % 1015,9 hPa 0,0 l/m 0 min 0 min 0,0 UV-I 5 W/m 0,0 km/h (0 Bft)
01.07.2013 22:02 18,3 C 15,7 C 76 % 1016,0 hPa 0,0 l/m 0 min 0 min 0,0 UV-I 5 W/m 0,0 km/h (0 Bft)
01.07.2013 22:06 18,3 C 15,1 C 76 % 1016,0 hPa 0,0 l/m 0 min 0 min 0,0 UV-I 0 W/m 0,0 km/h (0 Bft)
01.07.2013 22:08 18,2 C 15,1 C 76 % 1015,9 hPa 0,0 l/m 0 min 0 min 0,0 UV-I 0 W/m 0,0 km/h (0 Bft)
01.07.2013 22:10 18,2 C 15,1 C 76 % 1015,9 hPa 0,0 l/m 0 min 0 min 0,0 UV-I 0 W/m 0,0 km/h (0 Bft)
01.07.2013 22:12 18,2 C 15,1 C 76 % 1015,9 hPa 0,0 l/m 0 min 0 min 0,0 UV-I 0 W/m 0,0 km/h (0 Bft)
01.07.2013 22:14 18,1 C 14,6 C 76 % 1015,9 hPa 0,0 l/m 0 min 0 min 0,0 UV-I 0 W/m 0,0 km/h (0 Bft)
01.07.2013 22:16 18,0 C 14,6 C 77 % 1016,0 hPa 0,0 l/m 0 min 0 min 0,0 UV-I 0 W/m 0,0 km/h (0 Bft)
01.07.2013 22:18 17,9 C 14,6 C 77 % 1015,9 hPa 0,0 l/m 0 min 0 min 0,0 UV-I 0 W/m 0,0 km/h (0 Bft)
01.07.2013 22:20 17,9 C 14,6 C 77 % 1016,0 hPa 0,0 l/m 0 min 0 min 0,0 UV-I 0 W/m 0,0 km/h (0 Bft)
01.07.2013 22:22 17,8 C 14,6 C 77 % 1016,0 hPa 0,0 l/m 0 min 0 min 0,0 UV-I 0 W/m 0,0 km/h (0 Bft)
01.07.2013 22:24 17,8 C 14,6 C 77 % 1016,0 hPa 0,0 l/m 0 min 0 min 0,0 UV-I 0 W/m 0,0 km/h (0 Bft)
01.07.2013 22:26 17,7 C 14,6 C 77 % 1015,9 hPa 0,0 l/m 0 min 0 min 0,0 UV-I 0 W/m 0,0 km/h (0 Bft)
01.07.2013 22:28 17,7 C 14,6 C 78 % 1016,0 hPa 0,0 l/m 0 min 0 min 0,0 UV-I 0 W/m 0,0 km/h (0 Bft)
01.07.2013 22:30 17,6 C 14,0 C 78 % 1016,0 hPa 0,0 l/m 0 min 0 min 0,0 UV-I 0 W/m 0,0 km/h (0 Bft)
01.07.2013 22:32 17,6 C 14,0 C 78 % 1016,0 hPa 0,0 l/m 0 min 0 min 0,0 UV-I 0 W/m 0,0 km/h (0 Bft)
01.07.2013 22:34 17,5 C 14,0 C 78 % 1016,0 hPa 0,0 l/m 0 min 0 min 0,0 UV-I 0 W/m 0,0 km/h (0 Bft)
01.07.2013 22:36 17,4 C 14,0 C 78 % 1016,1 hPa 0,0 l/m 0 min 0 min 0,0 UV-I 0 W/m 0,0 km/h (0 Bft)
01.07.2013 22:38 17,3 C 14,0 C 79 % 1016,1 hPa 0,0 l/m 0 min 0 min 0,0 UV-I 0 W/m 0,0 km/h (0 Bft)
01.07.2013 22:40 17,3 C 14,0 C 79 % 1016,0 hPa 0,0 l/m 0 min 0 min 0,0 UV-I 0 W/m 0,0 km/h (0 Bft)
01.07.2013 22:42 17,2 C 14,0 C 79 % 1016,0 hPa 0,0 l/m 0 min 0 min 0,0 UV-I 0 W/m 0,0 km/h (0 Bft)
01.07.2013 22:44 17,2 C 14,0 C 80 % 1016,1 hPa 0,0 l/m 0 min 0 min 0,0 UV-I 0 W/m 0,0 km/h (0 Bft)
01.07.2013 22:46 17,1 C 14,0 C 80 % 1016,0 hPa 0,0 l/m 0 min 0 min 0,0 UV-I 0 W/m 0,0 km/h (0 Bft)
01.07.2013 22:48 17,1 C 14,0 C 80 % 1016,1 hPa 0,0 l/m 0 min 0 min 0,0 UV-I 0 W/m 0,0 km/h (0 Bft)
01.07.2013 22:50 17,0 C 14,0 C 80 % 1016,0 hPa 0,0 l/m 0 min 0 min 0,0 UV-I 0 W/m 0,0 km/h (0 Bft)
01.07.2013 22:52 16,9 C 13,4 C 80 % 1016,1 hPa 0,0 l/m 0 min 0 min 0,0 UV-I 0 W/m 0,0 km/h (0 Bft)
01.07.2013 22:54 16,9 C 13,4 C 81 % 1016,1 hPa 0,0 l/m 0 min 0 min 0,0 UV-I 0 W/m 0,0 km/h (0 Bft)
01.07.2013 22:56 16,8 C 13,4 C 81 % 1016,1 hPa 0,0 l/m 0 min 0 min 0,0 UV-I 0 W/m 0,0 km/h (0 Bft)
01.07.2013 22:58 16,8 C 13,4 C 81 % 1016,1 hPa 0,0 l/m 0 min 0 min 0,0 UV-I 0 W/m 0,0 km/h (0 Bft)
01.07.2013 23:00 16,7 C 13,4 C 81 % 1016,1 hPa 0,0 l/m 0 min 0 min 0,0 UV-I 0 W/m 0,0 km/h (0 Bft)
01.07.2013 23:02 16,7 C 13,4 C 81 % 1016,1 hPa 0,0 l/m 0 min 0 min 0,0 UV-I 0 W/m 0,0 km/h (0 Bft)
01.07.2013 23:06 16,5 C 13,4 C 82 % 1016,1 hPa 0,0 l/m 0 min 0 min 0,0 UV-I 0 W/m 0,0 km/h (0 Bft)
01.07.2013 23:08 16,5 C 14,0 C 82 % 1016,1 hPa 0,0 l/m 0 min 0 min 0,0 UV-I 0 W/m 0,0 km/h (0 Bft)
01.07.2013 23:10 16,4 C 14,0 C 82 % 1016,2 hPa 0,0 l/m 0 min 0 min 0,0 UV-I 0 W/m 0,0 km/h (0 Bft)
01.07.2013 23:12 16,4 C 14,0 C 82 % 1016,1 hPa 0,0 l/m 0 min 0 min 0,0 UV-I 0 W/m 0,0 km/h (0 Bft)
01.07.2013 23:14 16,3 C 14,0 C 83 % 1016,1 hPa 0,0 l/m 0 min 0 min 0,0 UV-I 0 W/m 0,0 km/h (0 Bft)
01.07.2013 23:16 16,3 C 14,0 C 83 % 1016,1 hPa 0,0 l/m 0 min 0 min 0,0 UV-I 0 W/m 0,0 km/h (0 Bft)
01.07.2013 23:18 16,3 C 14,0 C 83 % 1016,1 hPa 0,0 l/m 0 min 0 min 0,0 UV-I 0 W/m 0,0 km/h (0 Bft)
01.07.2013 23:20 16,2 C 14,0 C 83 % 1016,2 hPa 0,0 l/m 0 min 0 min 0,0 UV-I 0 W/m 0,0 km/h (0 Bft)
01.07.2013 23:22 16,2 C 14,0 C 83 % 1016,1 hPa 0,0 l/m 0 min 0 min 0,0 UV-I 0 W/m 0,0 km/h (0 Bft)
01.07.2013 23:24 16,2 C 14,0 C 83 % 1016,2 hPa 0,0 l/m 0 min 0 min 0,0 UV-I 0 W/m 0,0 km/h (0 Bft)
01.07.2013 23:26 16,1 C 14,0 C 84 % 1016,2 hPa 0,0 l/m 0 min 0 min 0,0 UV-I 0 W/m 0,0 km/h (0 Bft)
01.07.2013 23:28 16,1 C 14,0 C 84 % 1016,2 hPa 0,0 l/m 0 min 0 min 0,0 UV-I 0 W/m 0,0 km/h (0 Bft)
01.07.2013 23:30 16,1 C 14,0 C 84 % 1016,2 hPa 0,0 l/m 0 min 0 min 0,0 UV-I 0 W/m 0,0 km/h (0 Bft)
01.07.2013 23:32 16,1 C 13,4 C 84 % 1016,2 hPa 0,0 l/m 0 min 0 min 0,0 UV-I 0 W/m 0,0 km/h (0 Bft)
01.07.2013 23:34 16,0 C 13,4 C 84 % 1016,2 hPa 0,0 l/m 0 min 0 min 0,0 UV-I 0 W/m 0,0 km/h (0 Bft)
01.07.2013 23:36 16,0 C 13,4 C 84 % 1016,2 hPa 0,0 l/m 0 min 0 min 0,0 UV-I 0 W/m 0,0 km/h (0 Bft)
01.07.2013 23:38 15,9 C 13,4 C 84 % 1016,2 hPa 0,0 l/m 0 min 0 min 0,0 UV-I 0 W/m 0,0 km/h (0 Bft)
01.07.2013 23:40 15,9 C 13,4 C 84 % 1016,1 hPa 0,0 l/m 0 min 0 min 0,0 UV-I 0 W/m 0,0 km/h (0 Bft)
01.07.2013 23:42 15,9 C 13,4 C 84 % 1016,1 hPa 0,0 l/m 0 min 0 min 0,0 UV-I 0 W/m 0,0 km/h (0 Bft)
01.07.2013 23:44 15,8 C 13,4 C 84 % 1016,2 hPa 0,0 l/m 0 min 0 min 0,0 UV-I 0 W/m 0,0 km/h (0 Bft)
01.07.2013 23:46 15,8 C 13,4 C 85 % 1016,2 hPa 0,0 l/m 0 min 0 min 0,0 UV-I 0 W/m 0,0 km/h (0 Bft)
01.07.2013 23:48 15,8 C 13,4 C 85 % 1016,1 hPa 0,0 l/m 0 min 0 min 0,0 UV-I 0 W/m 0,0 km/h (0 Bft)
01.07.2013 23:50 15,8 C 13,4 C 85 % 1016,2 hPa 0,0 l/m 0 min 0 min 0,0 UV-I 0 W/m 0,0 km/h (0 Bft)
01.07.2013 23:52 15,7 C 12,9 C 85 % 1016,1 hPa 0,0 l/m 0 min 0 min 0,0 UV-I 0 W/m 0,0 km/h (0 Bft)
01.07.2013 23:54 15,7 C 12,9 C 85 % 1016,1 hPa 0,0 l/m 0 min 0 min 0,0 UV-I 0 W/m 0,0 km/h (0 Bft)
01.07.2013 23:56 15,7 C 12,9 C 85 % 1016,1 hPa 0,0 l/m 0 min 0 min 0,0 UV-I 0 W/m 0,0 km/h (0 Bft)
01.07.2013 23:58 15,6 C 12,9 C 86 % 1016,1 hPa 0,0 l/m 0 min 0 min 0,0 UV-I 0 W/m 0,0 km/h (0 Bft)
_ Min-Zeit 05:40 04:26 15:28 19:00 - - - - - 00:02
Minimum _ 14,2 C 12,9 C 68 % 1015,3 hPa - - - - - 0,0 km/h (0 Bft)
_ Max-Zeit 15:08 13:40 07:08 00:00 00:00 12:26 00:00 12:51 13:18 16:20
Maximum _ 21,8 C 26,2 C 97 % 1018,9 hPa 0,0 l/m 2 min 0 min 5,9 UV-I 1090 W/m 28,3 km/h
N (4 Bft)
Durchschnitt _ 17,6 C 17,0 C 84 % 1016,9 hPa #0,0 l/m #4:24 h #0 min. 2,8 UV-I 268 W/m 5,1 km/h (1 Bft)
© 2013 W. Hausmann